<?xml version='1.0' encoding='UTF-8'?>
<gpx version="1.1" creator="https://www.komoot.de" xmlns="http://www.topografix.com/GPX/1/1" xmlns:xsi="http://www.w3.org/2001/XMLSchema-instance" xsi:schemaLocation="http://www.topografix.com/GPX/1/1 http://www.topografix.com/GPX/1/1/gpx.xsd">
  <metadata>
    <name>Kleine Wanderung Schauinsland Höhenweg</name>
    <author>
      <link href="https://www.komoot.de">
        <text>komoot</text>
        <type>text/html</type>
      </link>
    </author>
  </metadata>
  <trk>
    <name>Kleine Wanderung Schauinsland Höhenweg</name>
    <trkseg>
      <trkpt lat="47.891390" lon="7.892451">
        <ele>1151.825800</ele>
        <time>2021-08-25T11:33:45.000Z</time>
      </trkpt>
      <trkpt lat="47.891477" lon="7.892503">
        <ele>1151.825800</ele>
        <time>2021-08-25T11:33:53.000Z</time>
      </trkpt>
      <trkpt lat="47.891575" lon="7.892526">
        <ele>1151.825800</ele>
        <time>2021-08-25T11:34:00.000Z</time>
      </trkpt>
      <trkpt lat="47.891677" lon="7.892539">
        <ele>1151.825800</ele>
        <time>2021-08-25T11:34:07.999Z</time>
      </trkpt>
      <trkpt lat="47.891764" lon="7.892570">
        <ele>1151.825800</ele>
        <time>2021-08-25T11:34:14.999Z</time>
      </trkpt>
      <trkpt lat="47.891859" lon="7.892594">
        <ele>1151.825800</ele>
        <time>2021-08-25T11:34:21.999Z</time>
      </trkpt>
      <trkpt lat="47.891958" lon="7.892605">
        <ele>1151.825800</ele>
        <time>2021-08-25T11:34:28.999Z</time>
      </trkpt>
      <trkpt lat="47.892053" lon="7.892628">
        <ele>1151.825800</ele>
        <time>2021-08-25T11:34:35.999Z</time>
      </trkpt>
      <trkpt lat="47.892140" lon="7.892674">
        <ele>1151.825800</ele>
        <time>2021-08-25T11:34:57.999Z</time>
      </trkpt>
      <trkpt lat="47.892230" lon="7.892662">
        <ele>1151.825800</ele>
        <time>2021-08-25T11:35:15.999Z</time>
      </trkpt>
      <trkpt lat="47.892315" lon="7.892582">
        <ele>1152.140869</ele>
        <time>2021-08-25T11:35:22.999Z</time>
      </trkpt>
      <trkpt lat="47.892407" lon="7.892522">
        <ele>1152.663966</ele>
        <time>2021-08-25T11:35:30.999Z</time>
      </trkpt>
      <trkpt lat="47.892495" lon="7.892475">
        <ele>1153.150915</ele>
        <time>2021-08-25T11:35:36.999Z</time>
      </trkpt>
      <trkpt lat="47.892586" lon="7.892444">
        <ele>1153.637190</ele>
        <time>2021-08-25T11:35:42.999Z</time>
      </trkpt>
      <trkpt lat="47.892684" lon="7.892407">
        <ele>1154.163828</ele>
        <time>2021-08-25T11:35:49.999Z</time>
      </trkpt>
      <trkpt lat="47.892783" lon="7.892371">
        <ele>1154.694680</ele>
        <time>2021-08-25T11:35:56.999Z</time>
      </trkpt>
      <trkpt lat="47.892879" lon="7.892331">
        <ele>1155.213944</ele>
        <time>2021-08-25T11:36:03.999Z</time>
      </trkpt>
      <trkpt lat="47.892969" lon="7.892291">
        <ele>1155.703177</ele>
        <time>2021-08-25T11:36:10.999Z</time>
      </trkpt>
      <trkpt lat="47.893062" lon="7.892263">
        <ele>1156.197436</ele>
        <time>2021-08-25T11:36:17.999Z</time>
      </trkpt>
      <trkpt lat="47.893154" lon="7.892215">
        <ele>1156.705192</ele>
        <time>2021-08-25T11:36:24.999Z</time>
      </trkpt>
      <trkpt lat="47.893242" lon="7.892159">
        <ele>1157.203618</ele>
        <time>2021-08-25T11:36:31.999Z</time>
      </trkpt>
      <trkpt lat="47.893314" lon="7.892070">
        <ele>1157.690790</ele>
        <time>2021-08-25T11:36:38.999Z</time>
      </trkpt>
      <trkpt lat="47.893360" lon="7.891935">
        <ele>1158.219748</ele>
        <time>2021-08-25T11:36:45.999Z</time>
      </trkpt>
      <trkpt lat="47.893379" lon="7.891801">
        <ele>1158.698167</ele>
        <time>2021-08-25T11:36:51.999Z</time>
      </trkpt>
      <trkpt lat="47.893412" lon="7.891671">
        <ele>1159.183715</ele>
        <time>2021-08-25T11:36:58.999Z</time>
      </trkpt>
      <trkpt lat="47.893489" lon="7.891585">
        <ele>1159.684862</ele>
        <time>2021-08-25T11:37:05.999Z</time>
      </trkpt>
      <trkpt lat="47.893585" lon="7.891537">
        <ele>1160.212332</ele>
        <time>2021-08-25T11:37:12.999Z</time>
      </trkpt>
      <trkpt lat="47.893679" lon="7.891493">
        <ele>1160.725579</ele>
        <time>2021-08-25T11:37:19.999Z</time>
      </trkpt>
      <trkpt lat="47.893772" lon="7.891453">
        <ele>1161.229503</ele>
        <time>2021-08-25T11:37:26.999Z</time>
      </trkpt>
      <trkpt lat="47.893862" lon="7.891416">
        <ele>1161.711465</ele>
        <time>2021-08-25T11:37:33.999Z</time>
      </trkpt>
      <trkpt lat="47.893954" lon="7.891352">
        <ele>1162.235551</ele>
        <time>2021-08-25T11:37:40.999Z</time>
      </trkpt>
      <trkpt lat="47.894043" lon="7.891297">
        <ele>1162.732904</ele>
        <time>2021-08-25T11:37:47.999Z</time>
      </trkpt>
      <trkpt lat="47.894137" lon="7.891240">
        <ele>1163.256765</ele>
        <time>2021-08-25T11:37:54.999Z</time>
      </trkpt>
      <trkpt lat="47.894229" lon="7.891196">
        <ele>1163.755547</ele>
        <time>2021-08-25T11:38:01.999Z</time>
      </trkpt>
      <trkpt lat="47.894324" lon="7.891177">
        <ele>1164.250383</ele>
        <time>2021-08-25T11:38:08.999Z</time>
      </trkpt>
      <trkpt lat="47.894426" lon="7.891175">
        <ele>1164.777013</ele>
        <time>2021-08-25T11:38:15.999Z</time>
      </trkpt>
      <trkpt lat="47.894522" lon="7.891187">
        <ele>1165.274360</ele>
        <time>2021-08-25T11:38:22.999Z</time>
      </trkpt>
      <trkpt lat="47.894626" lon="7.891197">
        <ele>1165.812384</ele>
        <time>2021-08-25T11:38:29.999Z</time>
      </trkpt>
      <trkpt lat="47.894721" lon="7.891225">
        <ele>1166.312316</ele>
        <time>2021-08-25T11:38:36.999Z</time>
      </trkpt>
      <trkpt lat="47.894822" lon="7.891245">
        <ele>1166.838314</ele>
        <time>2021-08-25T11:38:43.999Z</time>
      </trkpt>
      <trkpt lat="47.894922" lon="7.891251">
        <ele>1167.354991</ele>
        <time>2021-08-25T11:38:50.999Z</time>
      </trkpt>
      <trkpt lat="47.895013" lon="7.891290">
        <ele>1167.843798</ele>
        <time>2021-08-25T11:38:57.999Z</time>
      </trkpt>
      <trkpt lat="47.895105" lon="7.891341">
        <ele>1168.350504</ele>
        <time>2021-08-25T11:39:04.999Z</time>
      </trkpt>
      <trkpt lat="47.895189" lon="7.891407">
        <ele>1168.840658</ele>
        <time>2021-08-25T11:39:11.999Z</time>
      </trkpt>
      <trkpt lat="47.895265" lon="7.891483">
        <ele>1169.313046</ele>
        <time>2021-08-25T11:39:18.999Z</time>
      </trkpt>
      <trkpt lat="47.895356" lon="7.891550">
        <ele>1169.836968</ele>
        <time>2021-08-25T11:39:25.999Z</time>
      </trkpt>
      <trkpt lat="47.895434" lon="7.891633">
        <ele>1170.331634</ele>
        <time>2021-08-25T11:39:32.999Z</time>
      </trkpt>
      <trkpt lat="47.895512" lon="7.891717">
        <ele>1170.253229</ele>
        <time>2021-08-25T11:39:39.999Z</time>
      </trkpt>
      <trkpt lat="47.895599" lon="7.891792">
        <ele>1169.911725</ele>
        <time>2021-08-25T11:39:46.999Z</time>
      </trkpt>
      <trkpt lat="47.895695" lon="7.891836">
        <ele>1169.570414</ele>
        <time>2021-08-25T11:39:53.999Z</time>
      </trkpt>
      <trkpt lat="47.895794" lon="7.891858">
        <ele>1169.230251</ele>
        <time>2021-08-25T11:40:00.999Z</time>
      </trkpt>
      <trkpt lat="47.895888" lon="7.891863">
        <ele>1168.910591</ele>
        <time>2021-08-25T11:40:15.999Z</time>
      </trkpt>
      <trkpt lat="47.895949" lon="7.891752">
        <ele>1168.583563</ele>
        <time>2021-08-25T11:40:22.999Z</time>
      </trkpt>
      <trkpt lat="47.896000" lon="7.891628">
        <ele>1168.252091</ele>
        <time>2021-08-25T11:40:29.000Z</time>
      </trkpt>
      <trkpt lat="47.896066" lon="7.891519">
        <ele>1167.917432</ele>
        <time>2021-08-25T11:40:34.999Z</time>
      </trkpt>
      <trkpt lat="47.896152" lon="7.891432">
        <ele>1167.564276</ele>
        <time>2021-08-25T11:40:41.999Z</time>
      </trkpt>
      <trkpt lat="47.896218" lon="7.891325">
        <ele>1167.232985</ele>
        <time>2021-08-25T11:40:49.999Z</time>
      </trkpt>
      <trkpt lat="47.896291" lon="7.891221">
        <ele>1166.889904</ele>
        <time>2021-08-25T11:40:56.999Z</time>
      </trkpt>
      <trkpt lat="47.896357" lon="7.891128">
        <ele>1166.581334</ele>
        <time>2021-08-25T11:41:04.999Z</time>
      </trkpt>
      <trkpt lat="47.896422" lon="7.891028">
        <ele>1166.263975</ele>
        <time>2021-08-25T11:41:11.999Z</time>
      </trkpt>
      <trkpt lat="47.896492" lon="7.890938">
        <ele>1165.949892</ele>
        <time>2021-08-25T11:41:17.999Z</time>
      </trkpt>
      <trkpt lat="47.896571" lon="7.890854">
        <ele>1165.620172</ele>
        <time>2021-08-25T11:41:24.999Z</time>
      </trkpt>
      <trkpt lat="47.896650" lon="7.890764">
        <ele>1165.282332</ele>
        <time>2021-08-25T11:41:30.999Z</time>
      </trkpt>
      <trkpt lat="47.896722" lon="7.890657">
        <ele>1164.936912</ele>
        <time>2021-08-25T11:41:37.999Z</time>
      </trkpt>
      <trkpt lat="47.896810" lon="7.890606">
        <ele>1164.616062</ele>
        <time>2021-08-25T11:41:43.999Z</time>
      </trkpt>
      <trkpt lat="47.896893" lon="7.890516">
        <ele>1164.202894</ele>
        <time>2021-08-25T11:41:49.999Z</time>
      </trkpt>
      <trkpt lat="47.896972" lon="7.890415">
        <ele>1163.624941</ele>
        <time>2021-08-25T11:41:56.000Z</time>
      </trkpt>
      <trkpt lat="47.897059" lon="7.890332">
        <ele>1163.051296</ele>
        <time>2021-08-25T11:42:02.000Z</time>
      </trkpt>
      <trkpt lat="47.897141" lon="7.890242">
        <ele>1162.485794</ele>
        <time>2021-08-25T11:42:08.000Z</time>
      </trkpt>
      <trkpt lat="47.897188" lon="7.890114">
        <ele>1161.942303</ele>
        <time>2021-08-25T11:42:16.000Z</time>
      </trkpt>
      <trkpt lat="47.897268" lon="7.890038">
        <ele>1161.415460</ele>
        <time>2021-08-25T11:42:27.000Z</time>
      </trkpt>
      <trkpt lat="47.897240" lon="7.889894">
        <ele>1160.857092</ele>
        <time>2021-08-25T11:42:35.000Z</time>
      </trkpt>
      <trkpt lat="47.897200" lon="7.889771">
        <ele>1160.347988</ele>
        <time>2021-08-25T11:42:41.000Z</time>
      </trkpt>
      <trkpt lat="47.897146" lon="7.889645">
        <ele>1159.791077</ele>
        <time>2021-08-25T11:42:48.000Z</time>
      </trkpt>
      <trkpt lat="47.897104" lon="7.889503">
        <ele>1159.213082</ele>
        <time>2021-08-25T11:42:54.999Z</time>
      </trkpt>
      <trkpt lat="47.897068" lon="7.889368">
        <ele>1158.672021</ele>
        <time>2021-08-25T11:43:01.999Z</time>
      </trkpt>
      <trkpt lat="47.897038" lon="7.889234">
        <ele>1158.145904</ele>
        <time>2021-08-25T11:43:08.999Z</time>
      </trkpt>
      <trkpt lat="47.897005" lon="7.889109">
        <ele>1157.645602</ele>
        <time>2021-08-25T11:43:15.999Z</time>
      </trkpt>
      <trkpt lat="47.896965" lon="7.888976">
        <ele>1157.102745</ele>
        <time>2021-08-25T11:43:22.999Z</time>
      </trkpt>
      <trkpt lat="47.896925" lon="7.888856">
        <ele>1156.603666</ele>
        <time>2021-08-25T11:43:28.999Z</time>
      </trkpt>
      <trkpt lat="47.896870" lon="7.888730">
        <ele>1156.043742</ele>
        <time>2021-08-25T11:43:35.999Z</time>
      </trkpt>
      <trkpt lat="47.896843" lon="7.888592">
        <ele>1155.508378</ele>
        <time>2021-08-25T11:43:44.999Z</time>
      </trkpt>
      <trkpt lat="47.896891" lon="7.888472">
        <ele>1154.987994</ele>
        <time>2021-08-25T11:43:52.999Z</time>
      </trkpt>
      <trkpt lat="47.896935" lon="7.888349">
        <ele>1154.468806</ele>
        <time>2021-08-25T11:44:01.000Z</time>
      </trkpt>
      <trkpt lat="47.896985" lon="7.888232">
        <ele>1153.965126</ele>
        <time>2021-08-25T11:44:07.000Z</time>
      </trkpt>
      <trkpt lat="47.896986" lon="7.888083">
        <ele>1153.427167</ele>
        <time>2021-08-25T11:44:14.000Z</time>
      </trkpt>
      <trkpt lat="47.896985" lon="7.887949">
        <ele>1152.943359</ele>
        <time>2021-08-25T11:44:23.000Z</time>
      </trkpt>
      <trkpt lat="47.896922" lon="7.887844">
        <ele>1152.434651</ele>
        <time>2021-08-25T11:44:32.000Z</time>
      </trkpt>
      <trkpt lat="47.896906" lon="7.887711">
        <ele>1151.946814</ele>
        <time>2021-08-25T11:44:40.000Z</time>
      </trkpt>
      <trkpt lat="47.896899" lon="7.887559">
        <ele>1151.396758</ele>
        <time>2021-08-25T11:44:46.000Z</time>
      </trkpt>
      <trkpt lat="47.896937" lon="7.887422">
        <ele>1150.861493</ele>
        <time>2021-08-25T11:44:52.000Z</time>
      </trkpt>
      <trkpt lat="47.896995" lon="7.887293">
        <ele>1150.300742</ele>
        <time>2021-08-25T11:44:59.000Z</time>
      </trkpt>
      <trkpt lat="47.897044" lon="7.887161">
        <ele>1149.756018</ele>
        <time>2021-08-25T11:45:06.000Z</time>
      </trkpt>
      <trkpt lat="47.897072" lon="7.887029">
        <ele>1149.256179</ele>
        <time>2021-08-25T11:45:12.000Z</time>
      </trkpt>
      <trkpt lat="47.897118" lon="7.886895">
        <ele>1148.712677</ele>
        <time>2021-08-25T11:45:19.000Z</time>
      </trkpt>
      <trkpt lat="47.897138" lon="7.886763">
        <ele>1148.224104</ele>
        <time>2021-08-25T11:45:25.000Z</time>
      </trkpt>
      <trkpt lat="47.897170" lon="7.886620">
        <ele>1147.679839</ele>
        <time>2021-08-25T11:45:32.000Z</time>
      </trkpt>
      <trkpt lat="47.897214" lon="7.886493">
        <ele>1147.163737</ele>
        <time>2021-08-25T11:45:39.000Z</time>
      </trkpt>
      <trkpt lat="47.897249" lon="7.886358">
        <ele>1146.641181</ele>
        <time>2021-08-25T11:45:47.000Z</time>
      </trkpt>
      <trkpt lat="47.897288" lon="7.886219">
        <ele>1146.097185</ele>
        <time>2021-08-25T11:45:54.000Z</time>
      </trkpt>
      <trkpt lat="47.897348" lon="7.886095">
        <ele>1145.545104</ele>
        <time>2021-08-25T11:46:01.000Z</time>
      </trkpt>
      <trkpt lat="47.897370" lon="7.885963">
        <ele>1145.054047</ele>
        <time>2021-08-25T11:46:21.000Z</time>
      </trkpt>
      <trkpt lat="47.897423" lon="7.885838">
        <ele>1144.357561</ele>
        <time>2021-08-25T11:46:28.000Z</time>
      </trkpt>
      <trkpt lat="47.897474" lon="7.885704">
        <ele>1143.278503</ele>
        <time>2021-08-25T11:46:35.000Z</time>
      </trkpt>
      <trkpt lat="47.897518" lon="7.885576">
        <ele>1142.271170</ele>
        <time>2021-08-25T11:46:41.000Z</time>
      </trkpt>
      <trkpt lat="47.897535" lon="7.885436">
        <ele>1141.274801</ele>
        <time>2021-08-25T11:46:47.000Z</time>
      </trkpt>
      <trkpt lat="47.897467" lon="7.885328">
        <ele>1140.237255</ele>
        <time>2021-08-25T11:46:54.000Z</time>
      </trkpt>
      <trkpt lat="47.897372" lon="7.885346">
        <ele>1139.236999</ele>
        <time>2021-08-25T11:47:00.000Z</time>
      </trkpt>
      <trkpt lat="47.897280" lon="7.885348">
        <ele>1138.275950</ele>
        <time>2021-08-25T11:47:06.000Z</time>
      </trkpt>
      <trkpt lat="47.897182" lon="7.885397">
        <ele>1137.196346</ele>
        <time>2021-08-25T11:47:13.000Z</time>
      </trkpt>
      <trkpt lat="47.897089" lon="7.885402">
        <ele>1136.224323</ele>
        <time>2021-08-25T11:47:19.000Z</time>
      </trkpt>
      <trkpt lat="47.896987" lon="7.885430">
        <ele>1135.141031</ele>
        <time>2021-08-25T11:47:26.000Z</time>
      </trkpt>
      <trkpt lat="47.896885" lon="7.885432">
        <ele>1134.075541</ele>
        <time>2021-08-25T11:47:33.000Z</time>
      </trkpt>
      <trkpt lat="47.896787" lon="7.885439">
        <ele>1133.050751</ele>
        <time>2021-08-25T11:47:40.000Z</time>
      </trkpt>
      <trkpt lat="47.896693" lon="7.885471">
        <ele>1132.043664</ele>
        <time>2021-08-25T11:47:47.000Z</time>
      </trkpt>
      <trkpt lat="47.896604" lon="7.885513">
        <ele>1131.068630</ele>
        <time>2021-08-25T11:47:54.000Z</time>
      </trkpt>
      <trkpt lat="47.896507" lon="7.885549">
        <ele>1130.024561</ele>
        <time>2021-08-25T11:48:01.000Z</time>
      </trkpt>
      <trkpt lat="47.896409" lon="7.885575">
        <ele>1128.984876</ele>
        <time>2021-08-25T11:48:08.000Z</time>
      </trkpt>
      <trkpt lat="47.896334" lon="7.885493">
        <ele>1128.013558</ele>
        <time>2021-08-25T11:48:15.000Z</time>
      </trkpt>
      <trkpt lat="47.896357" lon="7.885355">
        <ele>1127.017712</ele>
        <time>2021-08-25T11:48:22.000Z</time>
      </trkpt>
      <trkpt lat="47.896390" lon="7.885215">
        <ele>1125.978446</ele>
        <time>2021-08-25T11:48:29.000Z</time>
      </trkpt>
      <trkpt lat="47.896420" lon="7.885084">
        <ele>1125.088391</ele>
        <time>2021-08-25T11:48:35.000Z</time>
      </trkpt>
      <trkpt lat="47.896446" lon="7.884938">
        <ele>1124.124109</ele>
        <time>2021-08-25T11:48:42.000Z</time>
      </trkpt>
      <trkpt lat="47.896481" lon="7.884802">
        <ele>1123.194220</ele>
        <time>2021-08-25T11:48:49.000Z</time>
      </trkpt>
      <trkpt lat="47.896527" lon="7.884680">
        <ele>1122.300756</ele>
        <time>2021-08-25T11:48:56.000Z</time>
      </trkpt>
      <trkpt lat="47.896579" lon="7.884557">
        <ele>1121.372555</ele>
        <time>2021-08-25T11:49:03.000Z</time>
      </trkpt>
      <trkpt lat="47.896644" lon="7.884444">
        <ele>1120.422154</ele>
        <time>2021-08-25T11:49:10.000Z</time>
      </trkpt>
      <trkpt lat="47.896710" lon="7.884335">
        <ele>1119.484630</ele>
        <time>2021-08-25T11:49:17.000Z</time>
      </trkpt>
      <trkpt lat="47.896793" lon="7.884244">
        <ele>1118.503885</ele>
        <time>2021-08-25T11:49:23.999Z</time>
      </trkpt>
      <trkpt lat="47.896881" lon="7.884199">
        <ele>1117.618193</ele>
        <time>2021-08-25T11:49:29.999Z</time>
      </trkpt>
      <trkpt lat="47.896973" lon="7.884142">
        <ele>1116.669727</ele>
        <time>2021-08-25T11:49:36.999Z</time>
      </trkpt>
      <trkpt lat="47.897056" lon="7.884064">
        <ele>1115.735737</ele>
        <time>2021-08-25T11:49:43.999Z</time>
      </trkpt>
      <trkpt lat="47.897143" lon="7.883988">
        <ele>1114.775828</ele>
        <time>2021-08-25T11:49:50.999Z</time>
      </trkpt>
      <trkpt lat="47.897219" lon="7.883895">
        <ele>1113.839898</ele>
        <time>2021-08-25T11:49:57.999Z</time>
      </trkpt>
      <trkpt lat="47.897291" lon="7.883799">
        <ele>1112.920439</ele>
        <time>2021-08-25T11:50:04.999Z</time>
      </trkpt>
      <trkpt lat="47.897351" lon="7.883687">
        <ele>1112.005328</ele>
        <time>2021-08-25T11:50:11.999Z</time>
      </trkpt>
      <trkpt lat="47.897418" lon="7.883585">
        <ele>1111.093838</ele>
        <time>2021-08-25T11:50:19.000Z</time>
      </trkpt>
      <trkpt lat="47.897488" lon="7.883478">
        <ele>1110.139561</ele>
        <time>2021-08-25T11:50:26.000Z</time>
      </trkpt>
      <trkpt lat="47.897558" lon="7.883376">
        <ele>1109.207861</ele>
        <time>2021-08-25T11:50:33.000Z</time>
      </trkpt>
      <trkpt lat="47.897625" lon="7.883272">
        <ele>1108.242336</ele>
        <time>2021-08-25T11:50:40.000Z</time>
      </trkpt>
      <trkpt lat="47.897681" lon="7.883158">
        <ele>1107.258392</ele>
        <time>2021-08-25T11:50:47.000Z</time>
      </trkpt>
      <trkpt lat="47.897740" lon="7.883045">
        <ele>1106.261224</ele>
        <time>2021-08-25T11:50:54.000Z</time>
      </trkpt>
      <trkpt lat="47.897798" lon="7.882917">
        <ele>1105.185603</ele>
        <time>2021-08-25T11:51:02.000Z</time>
      </trkpt>
      <trkpt lat="47.897862" lon="7.882804">
        <ele>1104.155719</ele>
        <time>2021-08-25T11:51:09.000Z</time>
      </trkpt>
      <trkpt lat="47.897921" lon="7.882689">
        <ele>1103.147530</ele>
        <time>2021-08-25T11:51:16.000Z</time>
      </trkpt>
      <trkpt lat="47.897998" lon="7.882588">
        <ele>1102.082710</ele>
        <time>2021-08-25T11:51:23.000Z</time>
      </trkpt>
      <trkpt lat="47.898074" lon="7.882492">
        <ele>1101.048496</ele>
        <time>2021-08-25T11:51:30.000Z</time>
      </trkpt>
      <trkpt lat="47.898146" lon="7.882393">
        <ele>1100.031583</ele>
        <time>2021-08-25T11:51:36.999Z</time>
      </trkpt>
      <trkpt lat="47.898213" lon="7.882287">
        <ele>1099.017323</ele>
        <time>2021-08-25T11:51:43.999Z</time>
      </trkpt>
      <trkpt lat="47.898293" lon="7.882209">
        <ele>1098.024818</ele>
        <time>2021-08-25T11:51:50.999Z</time>
      </trkpt>
      <trkpt lat="47.898396" lon="7.882215">
        <ele>1096.954403</ele>
        <time>2021-08-25T11:51:57.999Z</time>
      </trkpt>
      <trkpt lat="47.898487" lon="7.882200">
        <ele>1096.003664</ele>
        <time>2021-08-25T11:52:03.999Z</time>
      </trkpt>
      <trkpt lat="47.898586" lon="7.882183">
        <ele>1094.968812</ele>
        <time>2021-08-25T11:52:11.999Z</time>
      </trkpt>
      <trkpt lat="47.898681" lon="7.882166">
        <ele>1093.975214</ele>
        <time>2021-08-25T11:52:17.999Z</time>
      </trkpt>
      <trkpt lat="47.898772" lon="7.882173">
        <ele>1093.028973</ele>
        <time>2021-08-25T11:52:24.000Z</time>
      </trkpt>
      <trkpt lat="47.898873" lon="7.882172">
        <ele>1091.980119</ele>
        <time>2021-08-25T11:52:31.000Z</time>
      </trkpt>
      <trkpt lat="47.898963" lon="7.882133">
        <ele>1091.006875</ele>
        <time>2021-08-25T11:52:37.000Z</time>
      </trkpt>
      <trkpt lat="47.899041" lon="7.882048">
        <ele>1090.036314</ele>
        <time>2021-08-25T11:52:44.000Z</time>
      </trkpt>
      <trkpt lat="47.899118" lon="7.881975">
        <ele>1089.397063</ele>
        <time>2021-08-25T11:52:50.000Z</time>
      </trkpt>
      <trkpt lat="47.899204" lon="7.881891">
        <ele>1088.676810</ele>
        <time>2021-08-25T11:52:57.000Z</time>
      </trkpt>
      <trkpt lat="47.899278" lon="7.881786">
        <ele>1087.961208</ele>
        <time>2021-08-25T11:53:06.000Z</time>
      </trkpt>
      <trkpt lat="47.899351" lon="7.881697">
        <ele>1087.300617</ele>
        <time>2021-08-25T11:53:12.999Z</time>
      </trkpt>
      <trkpt lat="47.899417" lon="7.881585">
        <ele>1086.600173</ele>
        <time>2021-08-25T11:53:19.999Z</time>
      </trkpt>
      <trkpt lat="47.899491" lon="7.881480">
        <ele>1085.884571</ele>
        <time>2021-08-25T11:53:26.999Z</time>
      </trkpt>
      <trkpt lat="47.899574" lon="7.881410">
        <ele>1085.216514</ele>
        <time>2021-08-25T11:53:33.999Z</time>
      </trkpt>
      <trkpt lat="47.899652" lon="7.881310">
        <ele>1084.495879</ele>
        <time>2021-08-25T11:53:40.999Z</time>
      </trkpt>
      <trkpt lat="47.899713" lon="7.881188">
        <ele>1083.780982</ele>
        <time>2021-08-25T11:53:47.999Z</time>
      </trkpt>
      <trkpt lat="47.899740" lon="7.881057">
        <ele>1083.137210</ele>
        <time>2021-08-25T11:53:53.999Z</time>
      </trkpt>
      <trkpt lat="47.899759" lon="7.880922">
        <ele>1082.489249</ele>
        <time>2021-08-25T11:53:59.999Z</time>
      </trkpt>
      <trkpt lat="47.899772" lon="7.880784">
        <ele>1081.834651</ele>
        <time>2021-08-25T11:54:05.999Z</time>
      </trkpt>
      <trkpt lat="47.899762" lon="7.880635">
        <ele>1081.131251</ele>
        <time>2021-08-25T11:54:12.999Z</time>
      </trkpt>
      <trkpt lat="47.899804" lon="7.880510">
        <ele>1080.474473</ele>
        <time>2021-08-25T11:54:18.999Z</time>
      </trkpt>
      <trkpt lat="47.899844" lon="7.880389">
        <ele>1079.840758</ele>
        <time>2021-08-25T11:54:24.999Z</time>
      </trkpt>
      <trkpt lat="47.899898" lon="7.880260">
        <ele>1079.126387</ele>
        <time>2021-08-25T11:54:32.000Z</time>
      </trkpt>
      <trkpt lat="47.899961" lon="7.880139">
        <ele>1078.406742</ele>
        <time>2021-08-25T11:54:39.000Z</time>
      </trkpt>
      <trkpt lat="47.900025" lon="7.880021">
        <ele>1077.693790</ele>
        <time>2021-08-25T11:54:46.000Z</time>
      </trkpt>
      <trkpt lat="47.900079" lon="7.879888">
        <ele>1077.147414</ele>
        <time>2021-08-25T11:54:53.000Z</time>
      </trkpt>
      <trkpt lat="47.900133" lon="7.879769">
        <ele>1076.703111</ele>
        <time>2021-08-25T11:55:00.000Z</time>
      </trkpt>
      <trkpt lat="47.900182" lon="7.879655">
        <ele>1076.284407</ele>
        <time>2021-08-25T11:55:06.000Z</time>
      </trkpt>
      <trkpt lat="47.900233" lon="7.879543">
        <ele>1075.865783</ele>
        <time>2021-08-25T11:55:12.000Z</time>
      </trkpt>
      <trkpt lat="47.900268" lon="7.879412">
        <ele>1075.429759</ele>
        <time>2021-08-25T11:55:19.000Z</time>
      </trkpt>
      <trkpt lat="47.900332" lon="7.879301">
        <ele>1074.977087</ele>
        <time>2021-08-25T11:55:28.000Z</time>
      </trkpt>
      <trkpt lat="47.900373" lon="7.879172">
        <ele>1074.535675</ele>
        <time>2021-08-25T11:55:35.000Z</time>
      </trkpt>
      <trkpt lat="47.900427" lon="7.879049">
        <ele>1074.081079</ele>
        <time>2021-08-25T11:55:41.999Z</time>
      </trkpt>
      <trkpt lat="47.900489" lon="7.878926">
        <ele>1073.605268</ele>
        <time>2021-08-25T11:55:48.999Z</time>
      </trkpt>
      <trkpt lat="47.900546" lon="7.878795">
        <ele>1073.122395</ele>
        <time>2021-08-25T11:55:55.999Z</time>
      </trkpt>
      <trkpt lat="47.900577" lon="7.878660">
        <ele>1072.681179</ele>
        <time>2021-08-25T11:56:05.999Z</time>
      </trkpt>
      <trkpt lat="47.900635" lon="7.878553">
        <ele>1072.255732</ele>
        <time>2021-08-25T11:56:15.999Z</time>
      </trkpt>
      <trkpt lat="47.900679" lon="7.878425">
        <ele>1071.810975</ele>
        <time>2021-08-25T11:56:23.999Z</time>
      </trkpt>
      <trkpt lat="47.900747" lon="7.878321">
        <ele>1071.361806</ele>
        <time>2021-08-25T11:56:58.000Z</time>
      </trkpt>
      <trkpt lat="47.900773" lon="7.878191">
        <ele>1070.942351</ele>
        <time>2021-08-25T11:57:05.000Z</time>
      </trkpt>
      <trkpt lat="47.900784" lon="7.878038">
        <ele>1070.466576</ele>
        <time>2021-08-25T11:57:11.999Z</time>
      </trkpt>
      <trkpt lat="47.900797" lon="7.877897">
        <ele>1070.026512</ele>
        <time>2021-08-25T11:57:18.999Z</time>
      </trkpt>
      <trkpt lat="47.900833" lon="7.877769">
        <ele>1069.597332</ele>
        <time>2021-08-25T11:57:24.999Z</time>
      </trkpt>
      <trkpt lat="47.900832" lon="7.877628">
        <ele>1069.173970</ele>
        <time>2021-08-25T11:57:30.999Z</time>
      </trkpt>
      <trkpt lat="47.900824" lon="7.877472">
        <ele>1068.825212</ele>
        <time>2021-08-25T11:57:37.999Z</time>
      </trkpt>
      <trkpt lat="47.900826" lon="7.877325">
        <ele>1068.497464</ele>
        <time>2021-08-25T11:57:44.999Z</time>
      </trkpt>
      <trkpt lat="47.900840" lon="7.877184">
        <ele>1068.179729</ele>
        <time>2021-08-25T11:57:51.999Z</time>
      </trkpt>
      <trkpt lat="47.900846" lon="7.877044">
        <ele>1067.867016</ele>
        <time>2021-08-25T11:57:57.999Z</time>
      </trkpt>
      <trkpt lat="47.900849" lon="7.876900">
        <ele>1067.545868</ele>
        <time>2021-08-25T11:58:03.999Z</time>
      </trkpt>
      <trkpt lat="47.900842" lon="7.876753">
        <ele>1067.217362</ele>
        <time>2021-08-25T11:58:10.999Z</time>
      </trkpt>
      <trkpt lat="47.900849" lon="7.876616">
        <ele>1066.911087</ele>
        <time>2021-08-25T11:58:17.999Z</time>
      </trkpt>
      <trkpt lat="47.900836" lon="7.876469">
        <ele>1066.580567</ele>
        <time>2021-08-25T11:58:24.999Z</time>
      </trkpt>
      <trkpt lat="47.900839" lon="7.876324">
        <ele>1066.257191</ele>
        <time>2021-08-25T11:58:31.999Z</time>
      </trkpt>
      <trkpt lat="47.900832" lon="7.876178">
        <ele>1065.930909</ele>
        <time>2021-08-25T11:58:39.999Z</time>
      </trkpt>
      <trkpt lat="47.900844" lon="7.876038">
        <ele>1065.616292</ele>
        <time>2021-08-25T11:58:49.999Z</time>
      </trkpt>
      <trkpt lat="47.900837" lon="7.875889">
        <ele>1065.283338</ele>
        <time>2021-08-25T11:58:57.999Z</time>
      </trkpt>
      <trkpt lat="47.900834" lon="7.875747">
        <ele>1064.966646</ele>
        <time>2021-08-25T11:59:03.999Z</time>
      </trkpt>
      <trkpt lat="47.900813" lon="7.875613">
        <ele>1064.659891</ele>
        <time>2021-08-25T11:59:10.999Z</time>
      </trkpt>
      <trkpt lat="47.900800" lon="7.875477">
        <ele>1064.353665</ele>
        <time>2021-08-25T11:59:16.999Z</time>
      </trkpt>
      <trkpt lat="47.900787" lon="7.875325">
        <ele>1064.012093</ele>
        <time>2021-08-25T11:59:23.999Z</time>
      </trkpt>
      <trkpt lat="47.900772" lon="7.875184">
        <ele>1063.693854</ele>
        <time>2021-08-25T11:59:30.999Z</time>
      </trkpt>
      <trkpt lat="47.900739" lon="7.875055">
        <ele>1063.386074</ele>
        <time>2021-08-25T11:59:37.999Z</time>
      </trkpt>
      <trkpt lat="47.900704" lon="7.874907">
        <ele>1063.043804</ele>
        <time>2021-08-25T11:59:44.999Z</time>
      </trkpt>
      <trkpt lat="47.900657" lon="7.874784">
        <ele>1062.740785</ele>
        <time>2021-08-25T11:59:50.999Z</time>
      </trkpt>
      <trkpt lat="47.900609" lon="7.874649">
        <ele>1062.413720</ele>
        <time>2021-08-25T11:59:57.999Z</time>
      </trkpt>
      <trkpt lat="47.900560" lon="7.874528">
        <ele>1062.111160</ele>
        <time>2021-08-25T12:00:04.999Z</time>
      </trkpt>
      <trkpt lat="47.900508" lon="7.874397">
        <ele>1061.785315</ele>
        <time>2021-08-25T12:00:11.999Z</time>
      </trkpt>
      <trkpt lat="47.900463" lon="7.874280">
        <ele>1061.496613</ele>
        <time>2021-08-25T12:00:17.999Z</time>
      </trkpt>
      <trkpt lat="47.900425" lon="7.874146">
        <ele>1061.185205</ele>
        <time>2021-08-25T12:00:24.999Z</time>
      </trkpt>
      <trkpt lat="47.900374" lon="7.874034">
        <ele>1060.895421</ele>
        <time>2021-08-25T12:00:30.999Z</time>
      </trkpt>
      <trkpt lat="47.900340" lon="7.873907">
        <ele>1060.602726</ele>
        <time>2021-08-25T12:00:37.999Z</time>
      </trkpt>
      <trkpt lat="47.900293" lon="7.873783">
        <ele>1060.297844</ele>
        <time>2021-08-25T12:00:44.999Z</time>
      </trkpt>
      <trkpt lat="47.900245" lon="7.873657">
        <ele>1059.987663</ele>
        <time>2021-08-25T12:00:51.999Z</time>
      </trkpt>
      <trkpt lat="47.900203" lon="7.873517">
        <ele>1059.659383</ele>
        <time>2021-08-25T12:00:58.999Z</time>
      </trkpt>
      <trkpt lat="47.900151" lon="7.873404">
        <ele>1059.366030</ele>
        <time>2021-08-25T12:01:05.999Z</time>
      </trkpt>
      <trkpt lat="47.900096" lon="7.873273">
        <ele>1059.035201</ele>
        <time>2021-08-25T12:01:12.999Z</time>
      </trkpt>
      <trkpt lat="47.900055" lon="7.873147">
        <ele>1058.735430</ele>
        <time>2021-08-25T12:01:19.999Z</time>
      </trkpt>
      <trkpt lat="47.900012" lon="7.873022">
        <ele>1058.434721</ele>
        <time>2021-08-25T12:01:26.999Z</time>
      </trkpt>
      <trkpt lat="47.899998" lon="7.872880">
        <ele>1058.127522</ele>
        <time>2021-08-25T12:01:33.999Z</time>
      </trkpt>
      <trkpt lat="47.899985" lon="7.872730">
        <ele>1057.803797</ele>
        <time>2021-08-25T12:01:40.999Z</time>
      </trkpt>
      <trkpt lat="47.900005" lon="7.872596">
        <ele>1057.509968</ele>
        <time>2021-08-25T12:01:46.999Z</time>
      </trkpt>
      <trkpt lat="47.900026" lon="7.872462">
        <ele>1057.388746</ele>
        <time>2021-08-25T12:01:52.999Z</time>
      </trkpt>
      <trkpt lat="47.900050" lon="7.872328">
        <ele>1057.283522</ele>
        <time>2021-08-25T12:01:59.999Z</time>
      </trkpt>
      <trkpt lat="47.900087" lon="7.872190">
        <ele>1057.170767</ele>
        <time>2021-08-25T12:02:06.999Z</time>
      </trkpt>
      <trkpt lat="47.900131" lon="7.872073">
        <ele>1057.068994</ele>
        <time>2021-08-25T12:02:12.999Z</time>
      </trkpt>
      <trkpt lat="47.900187" lon="7.871947">
        <ele>1056.954307</ele>
        <time>2021-08-25T12:02:19.999Z</time>
      </trkpt>
      <trkpt lat="47.900247" lon="7.871826">
        <ele>1056.840130</ele>
        <time>2021-08-25T12:02:26.999Z</time>
      </trkpt>
      <trkpt lat="47.900302" lon="7.871711">
        <ele>1056.732962</ele>
        <time>2021-08-25T12:02:33.999Z</time>
      </trkpt>
      <trkpt lat="47.900364" lon="7.871600">
        <ele>1056.623355</ele>
        <time>2021-08-25T12:02:40.999Z</time>
      </trkpt>
      <trkpt lat="47.900419" lon="7.871479">
        <ele>1056.512450</ele>
        <time>2021-08-25T12:02:47.999Z</time>
      </trkpt>
      <trkpt lat="47.900480" lon="7.871369">
        <ele>1056.404150</ele>
        <time>2021-08-25T12:02:54.999Z</time>
      </trkpt>
      <trkpt lat="47.900523" lon="7.871228">
        <ele>1056.286635</ele>
        <time>2021-08-25T12:03:01.999Z</time>
      </trkpt>
      <trkpt lat="47.900553" lon="7.871082">
        <ele>1056.170787</ele>
        <time>2021-08-25T12:03:08.999Z</time>
      </trkpt>
      <trkpt lat="47.900562" lon="7.870945">
        <ele>1056.066355</ele>
        <time>2021-08-25T12:03:31.999Z</time>
      </trkpt>
      <trkpt lat="47.900586" lon="7.870814">
        <ele>1055.963329</ele>
        <time>2021-08-25T12:03:38.999Z</time>
      </trkpt>
      <trkpt lat="47.900573" lon="7.870667">
        <ele>1055.850843</ele>
        <time>2021-08-25T12:03:46.999Z</time>
      </trkpt>
      <trkpt lat="47.900540" lon="7.870520">
        <ele>1055.733236</ele>
        <time>2021-08-25T12:03:53.999Z</time>
      </trkpt>
      <trkpt lat="47.900497" lon="7.870399">
        <ele>1055.629342</ele>
        <time>2021-08-25T12:03:59.999Z</time>
      </trkpt>
      <trkpt lat="47.900451" lon="7.870266">
        <ele>1055.515806</ele>
        <time>2021-08-25T12:04:06.999Z</time>
      </trkpt>
      <trkpt lat="47.900411" lon="7.870137">
        <ele>1055.312751</ele>
        <time>2021-08-25T12:04:14.999Z</time>
      </trkpt>
      <trkpt lat="47.900388" lon="7.870001">
        <ele>1054.956732</ele>
        <time>2021-08-25T12:04:21.999Z</time>
      </trkpt>
      <trkpt lat="47.900360" lon="7.869858">
        <ele>1054.578595</ele>
        <time>2021-08-25T12:04:28.999Z</time>
      </trkpt>
      <trkpt lat="47.900353" lon="7.869723">
        <ele>1054.234905</ele>
        <time>2021-08-25T12:04:36.999Z</time>
      </trkpt>
      <trkpt lat="47.900354" lon="7.869575">
        <ele>1053.859222</ele>
        <time>2021-08-25T12:04:43.999Z</time>
      </trkpt>
      <trkpt lat="47.900326" lon="7.869444">
        <ele>1053.510218</ele>
        <time>2021-08-25T12:04:50.999Z</time>
      </trkpt>
      <trkpt lat="47.900331" lon="7.869305">
        <ele>1053.156890</ele>
        <time>2021-08-25T12:04:57.999Z</time>
      </trkpt>
      <trkpt lat="47.900319" lon="7.869163">
        <ele>1052.793603</ele>
        <time>2021-08-25T12:05:05.999Z</time>
      </trkpt>
      <trkpt lat="47.900295" lon="7.869027">
        <ele>1052.436639</ele>
        <time>2021-08-25T12:05:21.999Z</time>
      </trkpt>
      <trkpt lat="47.900320" lon="7.868888">
        <ele>1052.071343</ele>
        <time>2021-08-25T12:05:30.999Z</time>
      </trkpt>
      <trkpt lat="47.900229" lon="7.868898">
        <ele>1051.725875</ele>
        <time>2021-08-25T12:05:47.999Z</time>
      </trkpt>
      <trkpt lat="47.900184" lon="7.869022">
        <ele>1051.367975</ele>
        <time>2021-08-25T12:05:52.999Z</time>
      </trkpt>
      <trkpt lat="47.900145" lon="7.869152">
        <ele>1051.006468</ele>
        <time>2021-08-25T12:05:58.999Z</time>
      </trkpt>
      <trkpt lat="47.900119" lon="7.869304">
        <ele>1050.608289</ele>
        <time>2021-08-25T12:06:05.999Z</time>
      </trkpt>
      <trkpt lat="47.900109" lon="7.869454">
        <ele>1050.225668</ele>
        <time>2021-08-25T12:06:12.999Z</time>
      </trkpt>
      <trkpt lat="47.900102" lon="7.869607">
        <ele>1049.836407</ele>
        <time>2021-08-25T12:06:20.999Z</time>
      </trkpt>
      <trkpt lat="47.900101" lon="7.869751">
        <ele>1049.470874</ele>
        <time>2021-08-25T12:06:27.999Z</time>
      </trkpt>
      <trkpt lat="47.900087" lon="7.869897">
        <ele>1049.096513</ele>
        <time>2021-08-25T12:06:35.999Z</time>
      </trkpt>
      <trkpt lat="47.900071" lon="7.870052">
        <ele>1048.698442</ele>
        <time>2021-08-25T12:06:44.999Z</time>
      </trkpt>
      <trkpt lat="47.900064" lon="7.870191">
        <ele>1047.996315</ele>
        <time>2021-08-25T12:06:50.999Z</time>
      </trkpt>
      <trkpt lat="47.900042" lon="7.870327">
        <ele>1047.220682</ele>
        <time>2021-08-25T12:06:56.999Z</time>
      </trkpt>
      <trkpt lat="47.900027" lon="7.870473">
        <ele>1046.401797</ele>
        <time>2021-08-25T12:07:03.999Z</time>
      </trkpt>
      <trkpt lat="47.899992" lon="7.870596">
        <ele>1045.660995</ele>
        <time>2021-08-25T12:07:09.999Z</time>
      </trkpt>
      <trkpt lat="47.899944" lon="7.870727">
        <ele>1044.833327</ele>
        <time>2021-08-25T12:07:16.999Z</time>
      </trkpt>
      <trkpt lat="47.899891" lon="7.870852">
        <ele>1044.013353</ele>
        <time>2021-08-25T12:07:23.999Z</time>
      </trkpt>
      <trkpt lat="47.899810" lon="7.870936">
        <ele>1043.197540</ele>
        <time>2021-08-25T12:07:30.999Z</time>
      </trkpt>
      <trkpt lat="47.899721" lon="7.870982">
        <ele>1042.418623</ele>
        <time>2021-08-25T12:07:37.999Z</time>
      </trkpt>
      <trkpt lat="47.899622" lon="7.870969">
        <ele>1041.596777</ele>
        <time>2021-08-25T12:07:44.999Z</time>
      </trkpt>
      <trkpt lat="47.899537" lon="7.871013">
        <ele>1040.852744</ele>
        <time>2021-08-25T12:07:52.999Z</time>
      </trkpt>
      <trkpt lat="47.899446" lon="7.871042">
        <ele>1040.083237</ele>
        <time>2021-08-25T12:08:00.998Z</time>
      </trkpt>
      <trkpt lat="47.899355" lon="7.871090">
        <ele>1039.285045</ele>
        <time>2021-08-25T12:08:07.998Z</time>
      </trkpt>
      <trkpt lat="47.899263" lon="7.871163">
        <ele>1038.423299</ele>
        <time>2021-08-25T12:08:14.998Z</time>
      </trkpt>
      <trkpt lat="47.899184" lon="7.871249">
        <ele>1037.614519</ele>
        <time>2021-08-25T12:08:21.998Z</time>
      </trkpt>
      <trkpt lat="47.899110" lon="7.871335">
        <ele>1036.838755</ele>
        <time>2021-08-25T12:08:28.998Z</time>
      </trkpt>
      <trkpt lat="47.899050" lon="7.871453">
        <ele>1036.017671</ele>
        <time>2021-08-25T12:08:35.998Z</time>
      </trkpt>
      <trkpt lat="47.898997" lon="7.871564">
        <ele>1035.262148</ele>
        <time>2021-08-25T12:08:42.999Z</time>
      </trkpt>
      <trkpt lat="47.898930" lon="7.871675">
        <ele>1034.434077</ele>
        <time>2021-08-25T12:08:49.999Z</time>
      </trkpt>
      <trkpt lat="47.898889" lon="7.871553">
        <ele>1033.654818</ele>
        <time>2021-08-25T12:08:57.999Z</time>
      </trkpt>
      <trkpt lat="47.898906" lon="7.871394">
        <ele>1032.530949</ele>
        <time>2021-08-25T12:09:03.999Z</time>
      </trkpt>
      <trkpt lat="47.898891" lon="7.871257">
        <ele>1031.562000</ele>
        <time>2021-08-25T12:09:09.999Z</time>
      </trkpt>
      <trkpt lat="47.898827" lon="7.871365">
        <ele>1030.555876</ele>
        <time>2021-08-25T12:09:15.999Z</time>
      </trkpt>
      <trkpt lat="47.898771" lon="7.871477">
        <ele>1029.580630</ele>
        <time>2021-08-25T12:09:21.999Z</time>
      </trkpt>
      <trkpt lat="47.898699" lon="7.871580">
        <ele>1028.541967</ele>
        <time>2021-08-25T12:09:28.999Z</time>
      </trkpt>
      <trkpt lat="47.898668" lon="7.871722">
        <ele>1027.499558</ele>
        <time>2021-08-25T12:09:34.999Z</time>
      </trkpt>
      <trkpt lat="47.898644" lon="7.871867">
        <ele>1026.457044</ele>
        <time>2021-08-25T12:09:41.999Z</time>
      </trkpt>
      <trkpt lat="47.898608" lon="7.872012">
        <ele>1025.377747</ele>
        <time>2021-08-25T12:09:48.999Z</time>
      </trkpt>
      <trkpt lat="47.898595" lon="7.872148">
        <ele>1024.418841</ele>
        <time>2021-08-25T12:09:56.999Z</time>
      </trkpt>
      <trkpt lat="47.898579" lon="7.872286">
        <ele>1023.441276</ele>
        <time>2021-08-25T12:10:04.999Z</time>
      </trkpt>
      <trkpt lat="47.898573" lon="7.872438">
        <ele>1022.378449</ele>
        <time>2021-08-25T12:10:12.999Z</time>
      </trkpt>
      <trkpt lat="47.898545" lon="7.872572">
        <ele>1021.398727</ele>
        <time>2021-08-25T12:10:17.999Z</time>
      </trkpt>
      <trkpt lat="47.898533" lon="7.872714">
        <ele>1020.399696</ele>
        <time>2021-08-25T12:10:23.999Z</time>
      </trkpt>
      <trkpt lat="47.898534" lon="7.872855">
        <ele>1019.415432</ele>
        <time>2021-08-25T12:10:30.999Z</time>
      </trkpt>
      <trkpt lat="47.898521" lon="7.872994">
        <ele>1018.435789</ele>
        <time>2021-08-25T12:10:38.999Z</time>
      </trkpt>
      <trkpt lat="47.898545" lon="7.873135">
        <ele>1017.420357</ele>
        <time>2021-08-25T12:10:54.999Z</time>
      </trkpt>
      <trkpt lat="47.898574" lon="7.873265">
        <ele>1016.464020</ele>
        <time>2021-08-25T12:11:01.999Z</time>
      </trkpt>
      <trkpt lat="47.898594" lon="7.873408">
        <ele>1015.444364</ele>
        <time>2021-08-25T12:11:09.999Z</time>
      </trkpt>
      <trkpt lat="47.898630" lon="7.873541">
        <ele>1014.840019</ele>
        <time>2021-08-25T12:11:16.999Z</time>
      </trkpt>
      <trkpt lat="47.898684" lon="7.873666">
        <ele>1014.493700</ele>
        <time>2021-08-25T12:11:23.999Z</time>
      </trkpt>
      <trkpt lat="47.898733" lon="7.873796">
        <ele>1014.146371</ele>
        <time>2021-08-25T12:11:30.999Z</time>
      </trkpt>
      <trkpt lat="47.898770" lon="7.873922">
        <ele>1013.826011</ele>
        <time>2021-08-25T12:11:36.999Z</time>
      </trkpt>
      <trkpt lat="47.898796" lon="7.874070">
        <ele>1013.469692</ele>
        <time>2021-08-25T12:11:43.999Z</time>
      </trkpt>
      <trkpt lat="47.898840" lon="7.874210">
        <ele>1013.109593</ele>
        <time>2021-08-25T12:11:52.999Z</time>
      </trkpt>
      <trkpt lat="47.898886" lon="7.874349">
        <ele>1012.748582</ele>
        <time>2021-08-25T12:11:59.999Z</time>
      </trkpt>
      <trkpt lat="47.898947" lon="7.874455">
        <ele>1012.423245</ele>
        <time>2021-08-25T12:12:06.999Z</time>
      </trkpt>
      <trkpt lat="47.899003" lon="7.874581">
        <ele>1012.071177</ele>
        <time>2021-08-25T12:12:13.999Z</time>
      </trkpt>
      <trkpt lat="47.899048" lon="7.874698">
        <ele>1011.757038</ele>
        <time>2021-08-25T12:12:19.999Z</time>
      </trkpt>
      <trkpt lat="47.899096" lon="7.874825">
        <ele>1011.417503</ele>
        <time>2021-08-25T12:12:26.999Z</time>
      </trkpt>
      <trkpt lat="47.899137" lon="7.874953">
        <ele>1011.087126</ele>
        <time>2021-08-25T12:12:33.999Z</time>
      </trkpt>
      <trkpt lat="47.899197" lon="7.875061">
        <ele>1010.760469</ele>
        <time>2021-08-25T12:12:40.999Z</time>
      </trkpt>
      <trkpt lat="47.899246" lon="7.875177">
        <ele>1010.441163</ele>
        <time>2021-08-25T12:12:47.999Z</time>
      </trkpt>
      <trkpt lat="47.899271" lon="7.875322">
        <ele>1010.092482</ele>
        <time>2021-08-25T12:12:54.999Z</time>
      </trkpt>
      <trkpt lat="47.899278" lon="7.875459">
        <ele>1009.772495</ele>
        <time>2021-08-25T12:13:00.999Z</time>
      </trkpt>
      <trkpt lat="47.899257" lon="7.875602">
        <ele>1009.431564</ele>
        <time>2021-08-25T12:13:07.999Z</time>
      </trkpt>
      <trkpt lat="47.899201" lon="7.875723">
        <ele>1009.089143</ele>
        <time>2021-08-25T12:13:15.999Z</time>
      </trkpt>
      <trkpt lat="47.899108" lon="7.875765">
        <ele>1008.833890</ele>
        <time>2021-08-25T12:13:24.000Z</time>
      </trkpt>
      <trkpt lat="47.899036" lon="7.875669">
        <ele>1009.204389</ele>
        <time>2021-08-25T12:13:30.000Z</time>
      </trkpt>
      <trkpt lat="47.898959" lon="7.875580">
        <ele>1009.578109</ele>
        <time>2021-08-25T12:13:37.000Z</time>
      </trkpt>
      <trkpt lat="47.898874" lon="7.875522">
        <ele>1009.936710</ele>
        <time>2021-08-25T12:13:47.000Z</time>
      </trkpt>
      <trkpt lat="47.898795" lon="7.875449">
        <ele>1010.293237</ele>
        <time>2021-08-25T12:13:53.000Z</time>
      </trkpt>
      <trkpt lat="47.898695" lon="7.875393">
        <ele>1010.703028</ele>
        <time>2021-08-25T12:14:01.000Z</time>
      </trkpt>
      <trkpt lat="47.898595" lon="7.875383">
        <ele>1011.087533</ele>
        <time>2021-08-25T12:14:08.000Z</time>
      </trkpt>
      <trkpt lat="47.898503" lon="7.875384">
        <ele>1011.440494</ele>
        <time>2021-08-25T12:14:15.000Z</time>
      </trkpt>
      <trkpt lat="47.898407" lon="7.875380">
        <ele>1011.808935</ele>
        <time>2021-08-25T12:14:22.000Z</time>
      </trkpt>
      <trkpt lat="47.898310" lon="7.875357">
        <ele>1012.185742</ele>
        <time>2021-08-25T12:14:29.000Z</time>
      </trkpt>
      <trkpt lat="47.898212" lon="7.875315">
        <ele>1012.576925</ele>
        <time>2021-08-25T12:14:36.000Z</time>
      </trkpt>
      <trkpt lat="47.898118" lon="7.875262">
        <ele>1012.962456</ele>
        <time>2021-08-25T12:14:43.000Z</time>
      </trkpt>
      <trkpt lat="47.898021" lon="7.875269">
        <ele>1013.335026</ele>
        <time>2021-08-25T12:14:50.000Z</time>
      </trkpt>
      <trkpt lat="47.897929" lon="7.875320">
        <ele>1013.711567</ele>
        <time>2021-08-25T12:14:59.000Z</time>
      </trkpt>
      <trkpt lat="47.897836" lon="7.875323">
        <ele>1014.068438</ele>
        <time>2021-08-25T12:15:10.000Z</time>
      </trkpt>
      <trkpt lat="47.897742" lon="7.875340">
        <ele>1014.431704</ele>
        <time>2021-08-25T12:15:19.000Z</time>
      </trkpt>
      <trkpt lat="47.897653" lon="7.875369">
        <ele>1014.781200</ele>
        <time>2021-08-25T12:15:27.000Z</time>
      </trkpt>
      <trkpt lat="47.897558" lon="7.875370">
        <ele>1015.145670</ele>
        <time>2021-08-25T12:15:36.000Z</time>
      </trkpt>
      <trkpt lat="47.897460" lon="7.875362">
        <ele>1015.522203</ele>
        <time>2021-08-25T12:15:46.000Z</time>
      </trkpt>
      <trkpt lat="47.897366" lon="7.875335">
        <ele>1016.280556</ele>
        <time>2021-08-25T12:15:54.000Z</time>
      </trkpt>
      <trkpt lat="47.897272" lon="7.875318">
        <ele>1017.360009</ele>
        <time>2021-08-25T12:16:02.000Z</time>
      </trkpt>
      <trkpt lat="47.897181" lon="7.875311">
        <ele>1018.398792</ele>
        <time>2021-08-25T12:16:14.000Z</time>
      </trkpt>
      <trkpt lat="47.897008" lon="7.875268">
        <ele>1020.398198</ele>
        <time>2021-08-25T12:17:07.000Z</time>
      </trkpt>
      <trkpt lat="47.896909" lon="7.875276">
        <ele>1021.528457</ele>
        <time>2021-08-25T12:17:13.000Z</time>
      </trkpt>
      <trkpt lat="47.896809" lon="7.875261">
        <ele>1022.674213</ele>
        <time>2021-08-25T12:17:19.000Z</time>
      </trkpt>
      <trkpt lat="47.896713" lon="7.875290">
        <ele>1023.790838</ele>
        <time>2021-08-25T12:17:25.000Z</time>
      </trkpt>
      <trkpt lat="47.896614" lon="7.875330">
        <ele>1024.960121</ele>
        <time>2021-08-25T12:17:32.000Z</time>
      </trkpt>
      <trkpt lat="47.896513" lon="7.875360">
        <ele>1026.134137</ele>
        <time>2021-08-25T12:17:39.000Z</time>
      </trkpt>
      <trkpt lat="47.896423" lon="7.875405">
        <ele>1027.216259</ele>
        <time>2021-08-25T12:17:46.000Z</time>
      </trkpt>
      <trkpt lat="47.896367" lon="7.875518">
        <ele>1028.290292</ele>
        <time>2021-08-25T12:17:58.000Z</time>
      </trkpt>
      <trkpt lat="47.896269" lon="7.875543">
        <ele>1029.423721</ele>
        <time>2021-08-25T12:18:21.000Z</time>
      </trkpt>
      <trkpt lat="47.896193" lon="7.875638">
        <ele>1030.554170</ele>
        <time>2021-08-25T12:18:29.000Z</time>
      </trkpt>
      <trkpt lat="47.896111" lon="7.875723">
        <ele>1031.692573</ele>
        <time>2021-08-25T12:18:37.000Z</time>
      </trkpt>
      <trkpt lat="47.896026" lon="7.875782">
        <ele>1032.761375</ele>
        <time>2021-08-25T12:18:46.000Z</time>
      </trkpt>
      <trkpt lat="47.895935" lon="7.875831">
        <ele>1033.864317</ele>
        <time>2021-08-25T12:18:56.000Z</time>
      </trkpt>
      <trkpt lat="47.895860" lon="7.875911">
        <ele>1034.915478</ele>
        <time>2021-08-25T12:19:04.000Z</time>
      </trkpt>
      <trkpt lat="47.895773" lon="7.875990">
        <ele>1036.076639</ele>
        <time>2021-08-25T12:19:13.000Z</time>
      </trkpt>
      <trkpt lat="47.895692" lon="7.876051">
        <ele>1037.304488</ele>
        <time>2021-08-25T12:19:40.000Z</time>
      </trkpt>
      <trkpt lat="47.895615" lon="7.876152">
        <ele>1038.720459</ele>
        <time>2021-08-25T12:19:48.000Z</time>
      </trkpt>
      <trkpt lat="47.895545" lon="7.876244">
        <ele>1040.008819</ele>
        <time>2021-08-25T12:19:56.000Z</time>
      </trkpt>
      <trkpt lat="47.895469" lon="7.876320">
        <ele>1041.272343</ele>
        <time>2021-08-25T12:20:03.000Z</time>
      </trkpt>
      <trkpt lat="47.895395" lon="7.876424">
        <ele>1042.676381</ele>
        <time>2021-08-25T12:20:12.000Z</time>
      </trkpt>
      <trkpt lat="47.895320" lon="7.876503">
        <ele>1043.944278</ele>
        <time>2021-08-25T12:20:27.999Z</time>
      </trkpt>
      <trkpt lat="47.895245" lon="7.876599">
        <ele>1045.309044</ele>
        <time>2021-08-25T12:20:35.999Z</time>
      </trkpt>
      <trkpt lat="47.895180" lon="7.876705">
        <ele>1046.639003</ele>
        <time>2021-08-25T12:20:43.999Z</time>
      </trkpt>
      <trkpt lat="47.895118" lon="7.876818">
        <ele>1047.990874</ele>
        <time>2021-08-25T12:20:53.999Z</time>
      </trkpt>
      <trkpt lat="47.895053" lon="7.876919">
        <ele>1049.287051</ele>
        <time>2021-08-25T12:21:08.999Z</time>
      </trkpt>
      <trkpt lat="47.894993" lon="7.877027">
        <ele>1050.585632</ele>
        <time>2021-08-25T12:21:16.999Z</time>
      </trkpt>
      <trkpt lat="47.894920" lon="7.877123">
        <ele>1051.929564</ele>
        <time>2021-08-25T12:21:24.999Z</time>
      </trkpt>
      <trkpt lat="47.894862" lon="7.877226">
        <ele>1053.174907</ele>
        <time>2021-08-25T12:21:32.999Z</time>
      </trkpt>
      <trkpt lat="47.894800" lon="7.877327">
        <ele>1054.442753</ele>
        <time>2021-08-25T12:21:40.999Z</time>
      </trkpt>
      <trkpt lat="47.894729" lon="7.877427">
        <ele>1055.791252</ele>
        <time>2021-08-25T12:21:49.000Z</time>
      </trkpt>
      <trkpt lat="47.894657" lon="7.877529">
        <ele>1057.162512</ele>
        <time>2021-08-25T12:21:58.000Z</time>
      </trkpt>
      <trkpt lat="47.894605" lon="7.877641">
        <ele>1058.423826</ele>
        <time>2021-08-25T12:22:06.000Z</time>
      </trkpt>
      <trkpt lat="47.894545" lon="7.877749">
        <ele>1059.722414</ele>
        <time>2021-08-25T12:22:14.000Z</time>
      </trkpt>
      <trkpt lat="47.894499" lon="7.877867">
        <ele>1060.986177</ele>
        <time>2021-08-25T12:22:22.000Z</time>
      </trkpt>
      <trkpt lat="47.894442" lon="7.877973">
        <ele>1062.189843</ele>
        <time>2021-08-25T12:22:31.000Z</time>
      </trkpt>
      <trkpt lat="47.894393" lon="7.878090">
        <ele>1063.409727</ele>
        <time>2021-08-25T12:22:40.000Z</time>
      </trkpt>
      <trkpt lat="47.894301" lon="7.878302">
        <ele>1065.642860</ele>
        <time>2021-08-25T12:23:43.000Z</time>
      </trkpt>
      <trkpt lat="47.894259" lon="7.878431">
        <ele>1066.910995</ele>
        <time>2021-08-25T12:23:51.000Z</time>
      </trkpt>
      <trkpt lat="47.894224" lon="7.878565">
        <ele>1068.182705</ele>
        <time>2021-08-25T12:24:00.000Z</time>
      </trkpt>
      <trkpt lat="47.894172" lon="7.878708">
        <ele>1069.621269</ele>
        <time>2021-08-25T12:24:10.000Z</time>
      </trkpt>
      <trkpt lat="47.894125" lon="7.878834">
        <ele>1070.896320</ele>
        <time>2021-08-25T12:24:19.000Z</time>
      </trkpt>
      <trkpt lat="47.894079" lon="7.878957">
        <ele>1072.141778</ele>
        <time>2021-08-25T12:24:28.000Z</time>
      </trkpt>
      <trkpt lat="47.894042" lon="7.879086">
        <ele>1073.382531</ele>
        <time>2021-08-25T12:24:37.000Z</time>
      </trkpt>
      <trkpt lat="47.893994" lon="7.879208">
        <ele>1074.633415</ele>
        <time>2021-08-25T12:24:46.000Z</time>
      </trkpt>
      <trkpt lat="47.893958" lon="7.879335">
        <ele>1075.852734</ele>
        <time>2021-08-25T12:24:54.000Z</time>
      </trkpt>
      <trkpt lat="47.893920" lon="7.879462">
        <ele>1077.082564</ele>
        <time>2021-08-25T12:25:02.000Z</time>
      </trkpt>
      <trkpt lat="47.893865" lon="7.879585">
        <ele>1078.389962</ele>
        <time>2021-08-25T12:25:11.000Z</time>
      </trkpt>
      <trkpt lat="47.893826" lon="7.879734">
        <ele>1079.804430</ele>
        <time>2021-08-25T12:25:20.000Z</time>
      </trkpt>
      <trkpt lat="47.893776" lon="7.879862">
        <ele>1081.114436</ele>
        <time>2021-08-25T12:25:36.000Z</time>
      </trkpt>
      <trkpt lat="47.893738" lon="7.879992">
        <ele>1082.368544</ele>
        <time>2021-08-25T12:25:44.000Z</time>
      </trkpt>
      <trkpt lat="47.893699" lon="7.880115">
        <ele>1083.571742</ele>
        <time>2021-08-25T12:25:52.000Z</time>
      </trkpt>
      <trkpt lat="47.893656" lon="7.880233">
        <ele>1084.757146</ele>
        <time>2021-08-25T12:26:00.000Z</time>
      </trkpt>
      <trkpt lat="47.893607" lon="7.880355">
        <ele>1085.430431</ele>
        <time>2021-08-25T12:26:07.000Z</time>
      </trkpt>
      <trkpt lat="47.893564" lon="7.880485">
        <ele>1086.116710</ele>
        <time>2021-08-25T12:26:15.000Z</time>
      </trkpt>
      <trkpt lat="47.893527" lon="7.880617">
        <ele>1086.794053</ele>
        <time>2021-08-25T12:26:22.000Z</time>
      </trkpt>
      <trkpt lat="47.893469" lon="7.880743">
        <ele>1087.517627</ele>
        <time>2021-08-25T12:26:29.000Z</time>
      </trkpt>
      <trkpt lat="47.893426" lon="7.880879">
        <ele>1088.229493</ele>
        <time>2021-08-25T12:26:36.000Z</time>
      </trkpt>
      <trkpt lat="47.893395" lon="7.881014">
        <ele>1088.905074</ele>
        <time>2021-08-25T12:26:43.000Z</time>
      </trkpt>
      <trkpt lat="47.893345" lon="7.881136">
        <ele>1089.582016</ele>
        <time>2021-08-25T12:26:54.000Z</time>
      </trkpt>
      <trkpt lat="47.893298" lon="7.881259">
        <ele>1090.252266</ele>
        <time>2021-08-25T12:27:01.000Z</time>
      </trkpt>
      <trkpt lat="47.893256" lon="7.881397">
        <ele>1090.969763</ele>
        <time>2021-08-25T12:27:10.000Z</time>
      </trkpt>
      <trkpt lat="47.893209" lon="7.881515">
        <ele>1091.619553</ele>
        <time>2021-08-25T12:27:17.000Z</time>
      </trkpt>
      <trkpt lat="47.893159" lon="7.881646">
        <ele>1092.333199</ele>
        <time>2021-08-25T12:27:25.000Z</time>
      </trkpt>
      <trkpt lat="47.893116" lon="7.881775">
        <ele>1093.015241</ele>
        <time>2021-08-25T12:27:33.000Z</time>
      </trkpt>
      <trkpt lat="47.893063" lon="7.881897">
        <ele>1093.703470</ele>
        <time>2021-08-25T12:27:58.000Z</time>
      </trkpt>
      <trkpt lat="47.893022" lon="7.882021">
        <ele>1094.358032</ele>
        <time>2021-08-25T12:28:06.000Z</time>
      </trkpt>
      <trkpt lat="47.892984" lon="7.882144">
        <ele>1094.999203</ele>
        <time>2021-08-25T12:28:13.000Z</time>
      </trkpt>
      <trkpt lat="47.892928" lon="7.882264">
        <ele>1095.691385</ele>
        <time>2021-08-25T12:28:20.000Z</time>
      </trkpt>
      <trkpt lat="47.892894" lon="7.882405">
        <ele>1096.400791</ele>
        <time>2021-08-25T12:28:28.000Z</time>
      </trkpt>
      <trkpt lat="47.892853" lon="7.882531">
        <ele>1097.063861</ele>
        <time>2021-08-25T12:28:36.000Z</time>
      </trkpt>
      <trkpt lat="47.892832" lon="7.882666">
        <ele>1097.462700</ele>
        <time>2021-08-25T12:28:44.000Z</time>
      </trkpt>
      <trkpt lat="47.892781" lon="7.882783">
        <ele>1097.483231</ele>
        <time>2021-08-25T12:28:52.000Z</time>
      </trkpt>
      <trkpt lat="47.892727" lon="7.882899">
        <ele>1097.504007</ele>
        <time>2021-08-25T12:28:59.000Z</time>
      </trkpt>
      <trkpt lat="47.892682" lon="7.883027">
        <ele>1097.525270</ele>
        <time>2021-08-25T12:29:07.000Z</time>
      </trkpt>
      <trkpt lat="47.892645" lon="7.883164">
        <ele>1097.547000</ele>
        <time>2021-08-25T12:29:15.000Z</time>
      </trkpt>
      <trkpt lat="47.892588" lon="7.883286">
        <ele>1097.568876</ele>
        <time>2021-08-25T12:29:22.000Z</time>
      </trkpt>
      <trkpt lat="47.892535" lon="7.883407">
        <ele>1097.590140</ele>
        <time>2021-08-25T12:29:29.000Z</time>
      </trkpt>
      <trkpt lat="47.892465" lon="7.883524">
        <ele>1097.613210</ele>
        <time>2021-08-25T12:29:37.000Z</time>
      </trkpt>
      <trkpt lat="47.892388" lon="7.883609">
        <ele>1097.634229</ele>
        <time>2021-08-25T12:29:44.000Z</time>
      </trkpt>
      <trkpt lat="47.892308" lon="7.883672">
        <ele>1097.654080</ele>
        <time>2021-08-25T12:29:50.000Z</time>
      </trkpt>
      <trkpt lat="47.892245" lon="7.883773">
        <ele>1097.674375</ele>
        <time>2021-08-25T12:29:57.000Z</time>
      </trkpt>
      <trkpt lat="47.892190" lon="7.883892">
        <ele>1097.695639</ele>
        <time>2021-08-25T12:30:05.000Z</time>
      </trkpt>
      <trkpt lat="47.892127" lon="7.884001">
        <ele>1097.716811</ele>
        <time>2021-08-25T12:30:12.000Z</time>
      </trkpt>
      <trkpt lat="47.892058" lon="7.884088">
        <ele>1097.736636</ele>
        <time>2021-08-25T12:30:19.000Z</time>
      </trkpt>
      <trkpt lat="47.891991" lon="7.884178">
        <ele>1097.756421</ele>
        <time>2021-08-25T12:30:25.000Z</time>
      </trkpt>
      <trkpt lat="47.891936" lon="7.884285">
        <ele>1097.776257</ele>
        <time>2021-08-25T12:30:31.000Z</time>
      </trkpt>
      <trkpt lat="47.891865" lon="7.884392">
        <ele>1097.798404</ele>
        <time>2021-08-25T12:30:38.000Z</time>
      </trkpt>
      <trkpt lat="47.891805" lon="7.884507">
        <ele>1097.819842</ele>
        <time>2021-08-25T12:30:45.000Z</time>
      </trkpt>
      <trkpt lat="47.891739" lon="7.884611">
        <ele>1097.840910</ele>
        <time>2021-08-25T12:30:52.000Z</time>
      </trkpt>
      <trkpt lat="47.891673" lon="7.884724">
        <ele>1097.329514</ele>
        <time>2021-08-25T12:31:00.000Z</time>
      </trkpt>
      <trkpt lat="47.891602" lon="7.884826">
        <ele>1096.518476</ele>
        <time>2021-08-25T12:31:08.000Z</time>
      </trkpt>
      <trkpt lat="47.891541" lon="7.884936">
        <ele>1095.731040</ele>
        <time>2021-08-25T12:31:15.000Z</time>
      </trkpt>
      <trkpt lat="47.891485" lon="7.885044">
        <ele>1094.977917</ele>
        <time>2021-08-25T12:31:23.000Z</time>
      </trkpt>
      <trkpt lat="47.891423" lon="7.885156">
        <ele>1094.176735</ele>
        <time>2021-08-25T12:31:30.000Z</time>
      </trkpt>
      <trkpt lat="47.891349" lon="7.885240">
        <ele>1093.411657</ele>
        <time>2021-08-25T12:31:37.000Z</time>
      </trkpt>
      <trkpt lat="47.891335" lon="7.885099">
        <ele>1092.625358</ele>
        <time>2021-08-25T12:31:45.999Z</time>
      </trkpt>
      <trkpt lat="47.891348" lon="7.884960">
        <ele>1091.851151</ele>
        <time>2021-08-25T12:31:51.999Z</time>
      </trkpt>
      <trkpt lat="47.891364" lon="7.884818">
        <ele>1091.056835</ele>
        <time>2021-08-25T12:31:57.999Z</time>
      </trkpt>
      <trkpt lat="47.891372" lon="7.884674">
        <ele>1090.259747</ele>
        <time>2021-08-25T12:32:03.999Z</time>
      </trkpt>
      <trkpt lat="47.891382" lon="7.884528">
        <ele>1089.450157</ele>
        <time>2021-08-25T12:32:10.999Z</time>
      </trkpt>
      <trkpt lat="47.891409" lon="7.884384">
        <ele>1088.625320</ele>
        <time>2021-08-25T12:32:18.000Z</time>
      </trkpt>
      <trkpt lat="47.891431" lon="7.884246">
        <ele>1087.842833</ele>
        <time>2021-08-25T12:32:25.000Z</time>
      </trkpt>
      <trkpt lat="47.891472" lon="7.884107">
        <ele>1087.005141</ele>
        <time>2021-08-25T12:32:34.000Z</time>
      </trkpt>
      <trkpt lat="47.891509" lon="7.883975">
        <ele>1086.215911</ele>
        <time>2021-08-25T12:32:54.000Z</time>
      </trkpt>
      <trkpt lat="47.891553" lon="7.883837">
        <ele>1085.372966</ele>
        <time>2021-08-25T12:33:03.000Z</time>
      </trkpt>
      <trkpt lat="47.891579" lon="7.883695">
        <ele>1084.560957</ele>
        <time>2021-08-25T12:33:10.000Z</time>
      </trkpt>
      <trkpt lat="47.891597" lon="7.883543">
        <ele>1083.709487</ele>
        <time>2021-08-25T12:33:17.000Z</time>
      </trkpt>
      <trkpt lat="47.891515" lon="7.883477">
        <ele>1083.033895</ele>
        <time>2021-08-25T12:33:26.000Z</time>
      </trkpt>
      <trkpt lat="47.891467" lon="7.883609">
        <ele>1082.897087</ele>
        <time>2021-08-25T12:33:32.000Z</time>
      </trkpt>
      <trkpt lat="47.891410" lon="7.883730">
        <ele>1082.762361</ele>
        <time>2021-08-25T12:33:39.000Z</time>
      </trkpt>
      <trkpt lat="47.891360" lon="7.883846">
        <ele>1082.636724</ele>
        <time>2021-08-25T12:33:46.000Z</time>
      </trkpt>
      <trkpt lat="47.891307" lon="7.883968">
        <ele>1082.504283</ele>
        <time>2021-08-25T12:33:54.000Z</time>
      </trkpt>
      <trkpt lat="47.891242" lon="7.884061">
        <ele>1082.381893</ele>
        <time>2021-08-25T12:34:02.000Z</time>
      </trkpt>
      <trkpt lat="47.891175" lon="7.884174">
        <ele>1082.244465</ele>
        <time>2021-08-25T12:34:09.999Z</time>
      </trkpt>
      <trkpt lat="47.891101" lon="7.884268">
        <ele>1082.112389</ele>
        <time>2021-08-25T12:34:18.999Z</time>
      </trkpt>
      <trkpt lat="47.891020" lon="7.884347">
        <ele>1081.980886</ele>
        <time>2021-08-25T12:34:26.000Z</time>
      </trkpt>
      <trkpt lat="47.890958" lon="7.884448">
        <ele>1081.856130</ele>
        <time>2021-08-25T12:34:32.000Z</time>
      </trkpt>
      <trkpt lat="47.890884" lon="7.884545">
        <ele>1081.722265</ele>
        <time>2021-08-25T12:34:38.000Z</time>
      </trkpt>
      <trkpt lat="47.890806" lon="7.884649">
        <ele>1081.580103</ele>
        <time>2021-08-25T12:34:46.000Z</time>
      </trkpt>
      <trkpt lat="47.890721" lon="7.884708">
        <ele>1081.452714</ele>
        <time>2021-08-25T12:34:53.000Z</time>
      </trkpt>
      <trkpt lat="47.890622" lon="7.884761">
        <ele>1081.309796</ele>
        <time>2021-08-25T12:35:01.000Z</time>
      </trkpt>
      <trkpt lat="47.890530" lon="7.884785">
        <ele>1081.182894</ele>
        <time>2021-08-25T12:35:07.000Z</time>
      </trkpt>
      <trkpt lat="47.890440" lon="7.884806">
        <ele>1081.059121</ele>
        <time>2021-08-25T12:35:13.000Z</time>
      </trkpt>
      <trkpt lat="47.890336" lon="7.884788">
        <ele>1080.916865</ele>
        <time>2021-08-25T12:35:21.000Z</time>
      </trkpt>
      <trkpt lat="47.890250" lon="7.884737">
        <ele>1080.791115</ele>
        <time>2021-08-25T12:35:29.000Z</time>
      </trkpt>
      <trkpt lat="47.890151" lon="7.884718">
        <ele>1080.655491</ele>
        <time>2021-08-25T12:36:11.999Z</time>
      </trkpt>
      <trkpt lat="47.890065" lon="7.884663">
        <ele>1081.346688</ele>
        <time>2021-08-25T12:36:17.999Z</time>
      </trkpt>
      <trkpt lat="47.889966" lon="7.884637">
        <ele>1082.612882</ele>
        <time>2021-08-25T12:36:25.999Z</time>
      </trkpt>
      <trkpt lat="47.889880" lon="7.884576">
        <ele>1083.812424</ele>
        <time>2021-08-25T12:36:34.000Z</time>
      </trkpt>
      <trkpt lat="47.889776" lon="7.884524">
        <ele>1085.194077</ele>
        <time>2021-08-25T12:37:00.000Z</time>
      </trkpt>
      <trkpt lat="47.889698" lon="7.884436">
        <ele>1086.426047</ele>
        <time>2021-08-25T12:37:08.000Z</time>
      </trkpt>
      <trkpt lat="47.889618" lon="7.884345">
        <ele>1087.693406</ele>
        <time>2021-08-25T12:37:17.000Z</time>
      </trkpt>
      <trkpt lat="47.889555" lon="7.884250">
        <ele>1088.821934</ele>
        <time>2021-08-25T12:37:23.000Z</time>
      </trkpt>
      <trkpt lat="47.889481" lon="7.884137">
        <ele>1090.156019</ele>
        <time>2021-08-25T12:37:31.000Z</time>
      </trkpt>
      <trkpt lat="47.889407" lon="7.884037">
        <ele>1091.413889</ele>
        <time>2021-08-25T12:37:40.000Z</time>
      </trkpt>
      <trkpt lat="47.889336" lon="7.883925">
        <ele>1092.715702</ele>
        <time>2021-08-25T12:37:47.999Z</time>
      </trkpt>
      <trkpt lat="47.889257" lon="7.883831">
        <ele>1093.988720</ele>
        <time>2021-08-25T12:37:57.999Z</time>
      </trkpt>
      <trkpt lat="47.889203" lon="7.883720">
        <ele>1095.147022</ele>
        <time>2021-08-25T12:38:05.999Z</time>
      </trkpt>
      <trkpt lat="47.889144" lon="7.883607">
        <ele>1096.356678</ele>
        <time>2021-08-25T12:38:14.999Z</time>
      </trkpt>
      <trkpt lat="47.889088" lon="7.883498">
        <ele>1097.516497</ele>
        <time>2021-08-25T12:38:21.999Z</time>
      </trkpt>
      <trkpt lat="47.889030" lon="7.883375">
        <ele>1098.786567</ele>
        <time>2021-08-25T12:38:29.999Z</time>
      </trkpt>
      <trkpt lat="47.888966" lon="7.883276">
        <ele>1099.948076</ele>
        <time>2021-08-25T12:38:38.000Z</time>
      </trkpt>
      <trkpt lat="47.888904" lon="7.883176">
        <ele>1101.098433</ele>
        <time>2021-08-25T12:38:46.000Z</time>
      </trkpt>
      <trkpt lat="47.888850" lon="7.883065">
        <ele>1102.256740</ele>
        <time>2021-08-25T12:38:55.000Z</time>
      </trkpt>
      <trkpt lat="47.888790" lon="7.882934">
        <ele>1103.562193</ele>
        <time>2021-08-25T12:39:04.000Z</time>
      </trkpt>
      <trkpt lat="47.888745" lon="7.882809">
        <ele>1104.636335</ele>
        <time>2021-08-25T12:39:11.000Z</time>
      </trkpt>
      <trkpt lat="47.888706" lon="7.882681">
        <ele>1105.700780</ele>
        <time>2021-08-25T12:39:18.000Z</time>
      </trkpt>
      <trkpt lat="47.888647" lon="7.882556">
        <ele>1106.858099</ele>
        <time>2021-08-25T12:39:26.000Z</time>
      </trkpt>
      <trkpt lat="47.888589" lon="7.882445">
        <ele>1107.923503</ele>
        <time>2021-08-25T12:39:34.000Z</time>
      </trkpt>
      <trkpt lat="47.888524" lon="7.882339">
        <ele>1109.010999</ele>
        <time>2021-08-25T12:39:42.000Z</time>
      </trkpt>
      <trkpt lat="47.888457" lon="7.882240">
        <ele>1110.075915</ele>
        <time>2021-08-25T12:39:49.999Z</time>
      </trkpt>
      <trkpt lat="47.888388" lon="7.882145">
        <ele>1111.136216</ele>
        <time>2021-08-25T12:39:56.999Z</time>
      </trkpt>
      <trkpt lat="47.888286" lon="7.882006">
        <ele>1112.696271</ele>
        <time>2021-08-25T12:40:39.000Z</time>
      </trkpt>
      <trkpt lat="47.888215" lon="7.881918">
        <ele>1113.738627</ele>
        <time>2021-08-25T12:40:56.000Z</time>
      </trkpt>
      <trkpt lat="47.888137" lon="7.881830">
        <ele>1114.842920</ele>
        <time>2021-08-25T12:41:04.000Z</time>
      </trkpt>
      <trkpt lat="47.888057" lon="7.881765">
        <ele>1115.871525</ele>
        <time>2021-08-25T12:41:24.000Z</time>
      </trkpt>
      <trkpt lat="47.887979" lon="7.881694">
        <ele>1116.903281</ele>
        <time>2021-08-25T12:41:32.000Z</time>
      </trkpt>
      <trkpt lat="47.887889" lon="7.881637">
        <ele>1118.007269</ele>
        <time>2021-08-25T12:41:40.000Z</time>
      </trkpt>
      <trkpt lat="47.887795" lon="7.881576">
        <ele>1119.164710</ele>
        <time>2021-08-25T12:41:47.999Z</time>
      </trkpt>
      <trkpt lat="47.887714" lon="7.881506">
        <ele>1120.221709</ele>
        <time>2021-08-25T12:41:55.999Z</time>
      </trkpt>
      <trkpt lat="47.887623" lon="7.881467">
        <ele>1121.290731</ele>
        <time>2021-08-25T12:42:04.999Z</time>
      </trkpt>
      <trkpt lat="47.887526" lon="7.881438">
        <ele>1122.407701</ele>
        <time>2021-08-25T12:42:12.999Z</time>
      </trkpt>
      <trkpt lat="47.887423" lon="7.881432">
        <ele>1123.571508</ele>
        <time>2021-08-25T12:42:20.999Z</time>
      </trkpt>
      <trkpt lat="47.887320" lon="7.881441">
        <ele>1124.742030</ele>
        <time>2021-08-25T12:42:28.999Z</time>
      </trkpt>
      <trkpt lat="47.887224" lon="7.881454">
        <ele>1125.835614</ele>
        <time>2021-08-25T12:42:35.999Z</time>
      </trkpt>
      <trkpt lat="47.887133" lon="7.881479">
        <ele>1126.885367</ele>
        <time>2021-08-25T12:42:43.999Z</time>
      </trkpt>
      <trkpt lat="47.887043" lon="7.881537">
        <ele>1127.997668</ele>
        <time>2021-08-25T12:42:52.000Z</time>
      </trkpt>
      <trkpt lat="47.886956" lon="7.881605">
        <ele>1129.112028</ele>
        <time>2021-08-25T12:43:00.000Z</time>
      </trkpt>
      <trkpt lat="47.886881" lon="7.881694">
        <ele>1130.199421</ele>
        <time>2021-08-25T12:43:09.000Z</time>
      </trkpt>
      <trkpt lat="47.886806" lon="7.881790">
        <ele>1131.320749</ele>
        <time>2021-08-25T12:43:17.000Z</time>
      </trkpt>
      <trkpt lat="47.886744" lon="7.881891">
        <ele>1132.362462</ele>
        <time>2021-08-25T12:43:25.000Z</time>
      </trkpt>
      <trkpt lat="47.886679" lon="7.882004">
        <ele>1133.495085</ele>
        <time>2021-08-25T12:43:47.999Z</time>
      </trkpt>
      <trkpt lat="47.886609" lon="7.882101">
        <ele>1134.579170</ele>
        <time>2021-08-25T12:43:56.999Z</time>
      </trkpt>
      <trkpt lat="47.886547" lon="7.882217">
        <ele>1135.707694</ele>
        <time>2021-08-25T12:44:04.999Z</time>
      </trkpt>
      <trkpt lat="47.886490" lon="7.882327">
        <ele>1136.765288</ele>
        <time>2021-08-25T12:44:12.999Z</time>
      </trkpt>
      <trkpt lat="47.886429" lon="7.882442">
        <ele>1137.880801</ele>
        <time>2021-08-25T12:44:21.999Z</time>
      </trkpt>
      <trkpt lat="47.886365" lon="7.882559">
        <ele>1139.029492</ele>
        <time>2021-08-25T12:44:30.999Z</time>
      </trkpt>
      <trkpt lat="47.886300" lon="7.882668">
        <ele>1140.139199</ele>
        <time>2021-08-25T12:44:38.999Z</time>
      </trkpt>
      <trkpt lat="47.886238" lon="7.882777">
        <ele>1141.226589</ele>
        <time>2021-08-25T12:44:47.999Z</time>
      </trkpt>
      <trkpt lat="47.886176" lon="7.882880">
        <ele>1142.279581</ele>
        <time>2021-08-25T12:44:56.000Z</time>
      </trkpt>
      <trkpt lat="47.886125" lon="7.882993">
        <ele>1143.315841</ele>
        <time>2021-08-25T12:45:03.000Z</time>
      </trkpt>
      <trkpt lat="47.886055" lon="7.883096">
        <ele>1144.256177</ele>
        <time>2021-08-25T12:45:11.000Z</time>
      </trkpt>
      <trkpt lat="47.886017" lon="7.883250">
        <ele>1145.023449</ele>
        <time>2021-08-25T12:45:19.000Z</time>
      </trkpt>
      <trkpt lat="47.886073" lon="7.883369">
        <ele>1145.703200</ele>
        <time>2021-08-25T12:45:27.000Z</time>
      </trkpt>
      <trkpt lat="47.886168" lon="7.883376">
        <ele>1146.366393</ele>
        <time>2021-08-25T12:45:34.000Z</time>
      </trkpt>
      <trkpt lat="47.886264" lon="7.883372">
        <ele>1147.036013</ele>
        <time>2021-08-25T12:45:42.000Z</time>
      </trkpt>
      <trkpt lat="47.886364" lon="7.883380">
        <ele>1147.734264</ele>
        <time>2021-08-25T12:45:51.000Z</time>
      </trkpt>
      <trkpt lat="47.886462" lon="7.883439">
        <ele>1148.471154</ele>
        <time>2021-08-25T12:45:59.000Z</time>
      </trkpt>
      <trkpt lat="47.886559" lon="7.883502">
        <ele>1149.208851</ele>
        <time>2021-08-25T12:46:05.999Z</time>
      </trkpt>
      <trkpt lat="47.886657" lon="7.883519">
        <ele>1149.896761</ele>
        <time>2021-08-25T12:46:15.999Z</time>
      </trkpt>
      <trkpt lat="47.886704" lon="7.883651">
        <ele>1150.595564</ele>
        <time>2021-08-25T12:47:12.000Z</time>
      </trkpt>
      <trkpt lat="47.886784" lon="7.883765">
        <ele>1151.367097</ele>
        <time>2021-08-25T12:47:20.000Z</time>
      </trkpt>
      <trkpt lat="47.886816" lon="7.883900">
        <ele>1152.036593</ele>
        <time>2021-08-25T12:47:28.000Z</time>
      </trkpt>
      <trkpt lat="47.886863" lon="7.884022">
        <ele>1152.694462</ele>
        <time>2021-08-25T12:47:35.999Z</time>
      </trkpt>
      <trkpt lat="47.886913" lon="7.884136">
        <ele>1153.331378</ele>
        <time>2021-08-25T12:47:42.999Z</time>
      </trkpt>
      <trkpt lat="47.886958" lon="7.884273">
        <ele>1154.044667</ele>
        <time>2021-08-25T12:47:50.999Z</time>
      </trkpt>
      <trkpt lat="47.887011" lon="7.884405">
        <ele>1154.764034</ele>
        <time>2021-08-25T12:47:58.999Z</time>
      </trkpt>
      <trkpt lat="47.887064" lon="7.884524">
        <ele>1155.431980</ele>
        <time>2021-08-25T12:48:05.999Z</time>
      </trkpt>
      <trkpt lat="47.887125" lon="7.884641">
        <ele>1156.124923</ele>
        <time>2021-08-25T12:48:13.999Z</time>
      </trkpt>
      <trkpt lat="47.887179" lon="7.884761">
        <ele>1156.663293</ele>
        <time>2021-08-25T12:48:20.999Z</time>
      </trkpt>
      <trkpt lat="47.887236" lon="7.884871">
        <ele>1156.997894</ele>
        <time>2021-08-25T12:48:27.999Z</time>
      </trkpt>
      <trkpt lat="47.887288" lon="7.884989">
        <ele>1157.337753</ele>
        <time>2021-08-25T12:48:34.999Z</time>
      </trkpt>
      <trkpt lat="47.887339" lon="7.885107">
        <ele>1157.675654</ele>
        <time>2021-08-25T12:48:41.999Z</time>
      </trkpt>
      <trkpt lat="47.887397" lon="7.885224">
        <ele>1158.025861</ele>
        <time>2021-08-25T12:48:48.999Z</time>
      </trkpt>
      <trkpt lat="47.887456" lon="7.885340">
        <ele>1158.376292</ele>
        <time>2021-08-25T12:48:55.999Z</time>
      </trkpt>
      <trkpt lat="47.887509" lon="7.885451">
        <ele>1158.704270</ele>
        <time>2021-08-25T12:49:02.999Z</time>
      </trkpt>
      <trkpt lat="47.887568" lon="7.885557">
        <ele>1159.035843</ele>
        <time>2021-08-25T12:49:09.999Z</time>
      </trkpt>
      <trkpt lat="47.887619" lon="7.885670">
        <ele>1159.363691</ele>
        <time>2021-08-25T12:49:17.000Z</time>
      </trkpt>
      <trkpt lat="47.887667" lon="7.885789">
        <ele>1159.697941</ele>
        <time>2021-08-25T12:49:24.000Z</time>
      </trkpt>
      <trkpt lat="47.887711" lon="7.885913">
        <ele>1160.035610</ele>
        <time>2021-08-25T12:49:30.999Z</time>
      </trkpt>
      <trkpt lat="47.887767" lon="7.886026">
        <ele>1160.373806</ele>
        <time>2021-08-25T12:49:37.999Z</time>
      </trkpt>
      <trkpt lat="47.887810" lon="7.886146">
        <ele>1160.701288</ele>
        <time>2021-08-25T12:49:44.999Z</time>
      </trkpt>
      <trkpt lat="47.887854" lon="7.886285">
        <ele>1161.071254</ele>
        <time>2021-08-25T12:49:52.999Z</time>
      </trkpt>
      <trkpt lat="47.887894" lon="7.886414">
        <ele>1161.413335</ele>
        <time>2021-08-25T12:49:59.999Z</time>
      </trkpt>
      <trkpt lat="47.887943" lon="7.886548">
        <ele>1161.780700</ele>
        <time>2021-08-25T12:50:07.999Z</time>
      </trkpt>
      <trkpt lat="47.887986" lon="7.886683">
        <ele>1162.140427</ele>
        <time>2021-08-25T12:50:14.999Z</time>
      </trkpt>
      <trkpt lat="47.888026" lon="7.886814">
        <ele>1162.486883</ele>
        <time>2021-08-25T12:50:21.999Z</time>
      </trkpt>
      <trkpt lat="47.888069" lon="7.886939">
        <ele>1162.825026</ele>
        <time>2021-08-25T12:50:28.999Z</time>
      </trkpt>
      <trkpt lat="47.888105" lon="7.887063">
        <ele>1162.841142</ele>
        <time>2021-08-25T12:50:35.999Z</time>
      </trkpt>
      <trkpt lat="47.888142" lon="7.887194">
        <ele>1162.585041</ele>
        <time>2021-08-25T12:50:42.999Z</time>
      </trkpt>
      <trkpt lat="47.888192" lon="7.887326">
        <ele>1162.311900</ele>
        <time>2021-08-25T12:50:50.999Z</time>
      </trkpt>
      <trkpt lat="47.888235" lon="7.887450">
        <ele>1162.060388</ele>
        <time>2021-08-25T12:50:57.999Z</time>
      </trkpt>
      <trkpt lat="47.888278" lon="7.887575">
        <ele>1161.807274</ele>
        <time>2021-08-25T12:51:04.999Z</time>
      </trkpt>
      <trkpt lat="47.888349" lon="7.887669">
        <ele>1161.552184</ele>
        <time>2021-08-25T12:51:12.000Z</time>
      </trkpt>
      <trkpt lat="47.888429" lon="7.887756">
        <ele>1161.286161</ele>
        <time>2021-08-25T12:51:19.000Z</time>
      </trkpt>
      <trkpt lat="47.888509" lon="7.887834">
        <ele>1161.029357</ele>
        <time>2021-08-25T12:51:26.000Z</time>
      </trkpt>
      <trkpt lat="47.888599" lon="7.887907">
        <ele>1160.754096</ele>
        <time>2021-08-25T12:51:33.000Z</time>
      </trkpt>
      <trkpt lat="47.888666" lon="7.887995">
        <ele>1160.514218</ele>
        <time>2021-08-25T12:51:40.000Z</time>
      </trkpt>
      <trkpt lat="47.888758" lon="7.888067">
        <ele>1160.235067</ele>
        <time>2021-08-25T12:51:48.000Z</time>
      </trkpt>
      <trkpt lat="47.888837" lon="7.888150">
        <ele>1159.975427</ele>
        <time>2021-08-25T12:51:55.000Z</time>
      </trkpt>
      <trkpt lat="47.888915" lon="7.888236">
        <ele>1159.714802</ele>
        <time>2021-08-25T12:52:02.000Z</time>
      </trkpt>
      <trkpt lat="47.888984" lon="7.888328">
        <ele>1159.466122</ele>
        <time>2021-08-25T12:52:09.000Z</time>
      </trkpt>
      <trkpt lat="47.889059" lon="7.888427">
        <ele>1159.197016</ele>
        <time>2021-08-25T12:52:17.000Z</time>
      </trkpt>
      <trkpt lat="47.889120" lon="7.888537">
        <ele>1158.939846</ele>
        <time>2021-08-25T12:52:23.999Z</time>
      </trkpt>
      <trkpt lat="47.889180" lon="7.888641">
        <ele>1158.692672</ele>
        <time>2021-08-25T12:52:30.999Z</time>
      </trkpt>
      <trkpt lat="47.889243" lon="7.888757">
        <ele>1158.423734</ele>
        <time>2021-08-25T12:52:37.999Z</time>
      </trkpt>
      <trkpt lat="47.889286" lon="7.888887">
        <ele>1158.162576</ele>
        <time>2021-08-25T12:52:44.999Z</time>
      </trkpt>
      <trkpt lat="47.889340" lon="7.889014">
        <ele>1157.919217</ele>
        <time>2021-08-25T12:52:51.999Z</time>
      </trkpt>
      <trkpt lat="47.889386" lon="7.889141">
        <ele>1157.687921</ele>
        <time>2021-08-25T12:52:58.999Z</time>
      </trkpt>
      <trkpt lat="47.889427" lon="7.889275">
        <ele>1157.451901</ele>
        <time>2021-08-25T12:53:05.999Z</time>
      </trkpt>
      <trkpt lat="47.889462" lon="7.889415">
        <ele>1157.212481</ele>
        <time>2021-08-25T12:53:12.999Z</time>
      </trkpt>
      <trkpt lat="47.889506" lon="7.889550">
        <ele>1156.971956</ele>
        <time>2021-08-25T12:53:20.000Z</time>
      </trkpt>
      <trkpt lat="47.889549" lon="7.889685">
        <ele>1156.732467</ele>
        <time>2021-08-25T12:53:27.000Z</time>
      </trkpt>
      <trkpt lat="47.889594" lon="7.889811">
        <ele>1156.503714</ele>
        <time>2021-08-25T12:53:34.000Z</time>
      </trkpt>
      <trkpt lat="47.889651" lon="7.889931">
        <ele>1156.268070</ele>
        <time>2021-08-25T12:53:41.000Z</time>
      </trkpt>
      <trkpt lat="47.889708" lon="7.890045">
        <ele>1156.040204</ele>
        <time>2021-08-25T12:53:48.000Z</time>
      </trkpt>
      <trkpt lat="47.889776" lon="7.890155">
        <ele>1155.800467</ele>
        <time>2021-08-25T12:53:55.000Z</time>
      </trkpt>
      <trkpt lat="47.889834" lon="7.890266">
        <ele>1155.574976</ele>
        <time>2021-08-25T12:54:02.000Z</time>
      </trkpt>
      <trkpt lat="47.889896" lon="7.890372">
        <ele>1155.349585</ele>
        <time>2021-08-25T12:54:09.000Z</time>
      </trkpt>
      <trkpt lat="47.889968" lon="7.890469">
        <ele>1155.117719</ele>
        <time>2021-08-25T12:54:16.000Z</time>
      </trkpt>
      <trkpt lat="47.890057" lon="7.890534">
        <ele>1154.880906</ele>
        <time>2021-08-25T12:54:23.000Z</time>
      </trkpt>
      <trkpt lat="47.890150" lon="7.890579">
        <ele>1154.647263</ele>
        <time>2021-08-25T12:54:30.000Z</time>
      </trkpt>
      <trkpt lat="47.890236" lon="7.890619">
        <ele>1154.431991</ele>
        <time>2021-08-25T12:54:36.000Z</time>
      </trkpt>
      <trkpt lat="47.890338" lon="7.890638">
        <ele>1154.186353</ele>
        <time>2021-08-25T12:54:42.999Z</time>
      </trkpt>
      <trkpt lat="47.890433" lon="7.890688">
        <ele>1153.945613</ele>
        <time>2021-08-25T12:54:49.999Z</time>
      </trkpt>
      <trkpt lat="47.890523" lon="7.890708">
        <ele>1153.842849</ele>
        <time>2021-08-25T12:54:56.999Z</time>
      </trkpt>
      <trkpt lat="47.890615" lon="7.890766">
        <ele>1153.842849</ele>
        <time>2021-08-25T12:55:03.999Z</time>
      </trkpt>
      <trkpt lat="47.890704" lon="7.890802">
        <ele>1153.842849</ele>
        <time>2021-08-25T12:55:10.999Z</time>
      </trkpt>
      <trkpt lat="47.890793" lon="7.890841">
        <ele>1153.842849</ele>
        <time>2021-08-25T12:55:17.999Z</time>
      </trkpt>
      <trkpt lat="47.890794" lon="7.890980">
        <ele>1153.842849</ele>
        <time>2021-08-25T12:55:25.000Z</time>
      </trkpt>
      <trkpt lat="47.890805" lon="7.891116">
        <ele>1153.842849</ele>
        <time>2021-08-25T12:55:34.000Z</time>
      </trkpt>
      <trkpt lat="47.890764" lon="7.891241">
        <ele>1153.842849</ele>
        <time>2021-08-25T12:55:40.000Z</time>
      </trkpt>
      <trkpt lat="47.890737" lon="7.891373">
        <ele>1153.842849</ele>
        <time>2021-08-25T12:55:46.000Z</time>
      </trkpt>
      <trkpt lat="47.890711" lon="7.891515">
        <ele>1153.842849</ele>
        <time>2021-08-25T12:55:54.000Z</time>
      </trkpt>
      <trkpt lat="47.890630" lon="7.891602">
        <ele>1153.842849</ele>
        <time>2021-08-25T12:56:03.000Z</time>
      </trkpt>
      <trkpt lat="47.890544" lon="7.891676">
        <ele>1153.842849</ele>
        <time>2021-08-25T12:56:15.000Z</time>
      </trkpt>
      <trkpt lat="47.890488" lon="7.891794">
        <ele>1153.842849</ele>
        <time>2021-08-25T12:56:25.000Z</time>
      </trkpt>
      <trkpt lat="47.890501" lon="7.891929">
        <ele>1153.842849</ele>
        <time>2021-08-25T12:56:33.000Z</time>
      </trkpt>
      <trkpt lat="47.890557" lon="7.892034">
        <ele>1153.842849</ele>
        <time>2021-08-25T12:56:41.999Z</time>
      </trkpt>
      <trkpt lat="47.890635" lon="7.892127">
        <ele>1153.842849</ele>
        <time>2021-08-25T12:56:52.999Z</time>
      </trkpt>
      <trkpt lat="47.890720" lon="7.892187">
        <ele>1153.842849</ele>
        <time>2021-08-25T12:57:04.999Z</time>
      </trkpt>
      <trkpt lat="47.890802" lon="7.892257">
        <ele>1153.842849</ele>
        <time>2021-08-25T12:57:12.999Z</time>
      </trkpt>
      <trkpt lat="47.890894" lon="7.892308">
        <ele>1153.842849</ele>
        <time>2021-08-25T12:57:21.999Z</time>
      </trkpt>
      <trkpt lat="47.890983" lon="7.892336">
        <ele>1153.842849</ele>
        <time>2021-08-25T12:57:31.000Z</time>
      </trkpt>
      <trkpt lat="47.891073" lon="7.892406">
        <ele>1153.842849</ele>
        <time>2021-08-25T12:57:39.000Z</time>
      </trkpt>
      <trkpt lat="47.891162" lon="7.892439">
        <ele>1153.842849</ele>
        <time>2021-08-25T12:57:47.000Z</time>
      </trkpt>
      <trkpt lat="47.891253" lon="7.892451">
        <ele>1153.842849</ele>
        <time>2021-08-25T12:57:56.000Z</time>
      </trkpt>
      <trkpt lat="47.891341" lon="7.892482">
        <ele>1153.842849</ele>
        <time>2021-08-25T12:58:06.000Z</time>
      </trkpt>
    </trkseg>
  </trk>
</gpx>